May 17, 2021
Temp
 
64.2 °F
 
Dew Pt.
 
55.4 °F
 
Humidity
 
73%
 
Pressure
 
1015.2 hPa 
  steady
Wind
 
1.0 mph 
    W
Rain
 
0.01 in 
  0.00 in/hr
UV index
 
---  
 
Solar rad.
 
100 W/m²
 
Tonight

Tonight: Mostly cloudy, with a low around 56. Southwest wind 5 to 10 mph becoming light west southwest  after midnight.
Mostly Cloudy

Tuesday

Tuesday: Cloudy through mid morning, then gradual clearing, with a high near 79. Light and variable wind becoming southwest 5 to 10 mph in the afternoon.
Gradual
Clearing
Lo 56 °F Hi 79 °F
MAP MAG LOCAL DATETIME
y/m/d h:m:s
LAT
deg
LON
deg
DEPTH
km
LOCATION
map1.12021/05/17 19:15:1436.231N120.795W7.93 30 km (19 mi) E of King City, CA
map1.92021/05/17 19:04:4239.742N123.542W7.07 8 km ( 5 mi) NW of Laytonville, CA
map1.02021/05/17 18:28:2735.782N117.600W6.83 18 km (11 mi) W of Searles Valley, CA
map1.22021/05/17 17:38:0638.834N122.810W2.1 8 km ( 5 mi) W of Cobb, CA
map1.52021/05/17 17:36:3336.566N121.065W8.86 28 km (17 mi) NE of Soledad, CA
map1.22021/05/17 17:15:5338.834N122.805W1.68 7 km ( 4 mi) W of Cobb, CA
map0.42021/05/17 17:15:3438.834N122.806W2.16 7 km ( 5 mi) W of Cobb, CA
map0.92021/05/17 17:13:0833.310N116.316W10.83 8 km ( 5 mi) NE of Borrego Springs, CA
map1.02021/05/17 17:11:2938.822N122.765W2.34 4 km ( 2 mi) W of Cobb, CA
map0.42021/05/17 17:01:4638.814N122.828W2.52 7 km ( 5 mi) WNW of The Geysers, CA
map1.22021/05/17 16:26:2438.157N117.899W8.8 59 km (37 mi) W of Tonopah, NV
map1.12021/05/17 16:22:5933.846N116.132W2.43 16 km (10 mi) NNE of Indio, CA
map1.92021/05/17 16:14:1737.570N118.829W3.37 15 km ( 9 mi) ESE of Mammoth Lakes, CA
map0.92021/05/17 15:43:0438.835N122.807W2.02 7 km ( 5 mi) W of Cobb, CA
map1.22021/05/17 15:35:3534.308N119.143W17.87 9 km ( 5 mi) ENE of Ventura, CA
map1.92021/05/17 15:30:4032.602N116.984W3.67 2 km ( 1 mi) WSW of Quarry at SYS-1 (Probable quarry explosion)
map0.82021/05/17 15:24:2134.212N117.459W9.63 5 km ( 3 mi) WSW of Devore, CA
map1.32021/05/17 15:23:5134.217N117.462W10.33 6 km ( 3 mi) W of Devore, CA
map-0.32021/05/17 15:07:3835.535N117.507W3.33 18 km (11 mi) ESE of Ridgecrest, CA
map0.72021/05/17 14:41:2538.818N122.797W0.78 6 km ( 4 mi) NW of The Geysers, CA
map0.92021/05/17 14:32:5438.841N122.824W1.79 9 km ( 6 mi) WNW of Cobb, CA
map1.22021/05/17 14:29:1638.843N122.880W2.39 13 km ( 8 mi) ENE of Cloverdale, CA
map2.02021/05/17 14:21:4238.515N122.594W5.96 7 km ( 4 mi) S of Calistoga, CA
map0.82021/05/17 14:06:5538.763N122.738W1.38 2 km ( 1 mi) SE of The Geysers, CA
map2.12021/05/17 14:05:4737.517N118.774W5.51 22 km (14 mi) SE of Mammoth Lakes, CA
map1.72021/05/17 14:00:4432.752N115.813W3.36 17 km (11 mi) E of Ocotillo, CA
map1.32021/05/17 13:50:4038.835N122.819W1.41 8 km ( 5 mi) NW of The Geysers, CA
map1.72021/05/17 13:47:2938.703N122.405W7 15 km ( 9 mi) NNE of Angwin, CA
map1.22021/05/17 13:42:5833.952N116.999W18.64 3 km ( 2 mi) NW of Beaumont, CA
map0.92021/05/17 13:34:4033.993N116.974W18.25 7 km ( 4 mi) N of Beaumont, CA
map0.52021/05/17 13:15:5333.422N116.614W3.78 16 km (10 mi) N of Warner Springs, CA
map0.22021/05/17 13:04:1735.875N117.680W5.75 21 km (13 mi) ESE of Little Lake, CA
map2.82021/05/17 12:49:5539.127N120.034W7.29 9 km ( 5 mi) SE of Dollar Point, CA
map0.92021/05/17 12:49:1437.514N118.774W4.13 23 km (14 mi) SE of Mammoth Lakes, CA
map0.82021/05/17 12:47:3037.521N118.794W4.2 21 km (13 mi) SE of Mammoth Lakes, CA
map2.82021/05/17 12:45:3237.519N118.776W5.61 22 km (14 mi) SE of Mammoth Lakes, CA
map1.02021/05/17 12:40:4437.517N118.774W5.79 22 km (14 mi) SE of Mammoth Lakes, CA
map1.52021/05/17 12:38:0933.976N116.865W17.12 6 km ( 4 mi) N of Banning, CA
map2.92021/05/17 12:37:0237.519N118.775W5.93 22 km (14 mi) SE of Mammoth Lakes, CA
map1.92021/05/17 12:35:3034.736N116.425W-0.96 2 km ( 1 mi) SSW of Quarry at HECTOR (Probable quarry explosion)
map-0.12021/05/17 12:31:3635.701N117.407W1.02 7 km ( 5 mi) S of Searles Valley, CA
map0.82021/05/17 12:28:2737.408N117.095W5.3 63 km (39 mi) NNW of Beatty, NV
MAP3.42021/05/17 12:24:3939.127N120.032W7.17 9 km ( 6 mi) SE of Dollar Point, CA
map0.02021/05/17 12:24:3533.592N116.805W7.07 13 km ( 8 mi) WNW of Anza, CA
map1.12021/05/17 12:19:3638.801N122.816W2.62 6 km ( 4 mi) WNW of The Geysers, CA
map0.82021/05/17 12:15:3338.820N122.862W3.05 10 km ( 6 mi) WNW of The Geysers, CA
map0.52021/05/17 12:11:2032.945N116.216W11.52 23 km (15 mi) SSW of Ocotillo Wells, CA
map0.92021/05/17 11:46:5038.829N122.814W3.59 8 km ( 5 mi) NW of The Geysers, CA
map1.82021/05/17 11:41:1037.908N118.560W10.14 48 km (30 mi) NE of Mammoth Lakes, CA
map0.62021/05/17 11:35:1238.813N122.830W2.2 8 km ( 5 mi) WNW of The Geysers, CA
map1.22021/05/17 11:23:3436.512N121.081W7.83 24 km (15 mi) ENE of Soledad, CA
map1.42021/05/17 11:16:5932.747N115.826W3.39 16 km (10 mi) E of Ocotillo, CA
map1.52021/05/17 10:56:2837.907N118.552W2.32 48 km (30 mi) NE of Mammoth Lakes, CA
map1.02021/05/17 10:42:2338.842N122.825W1.88 9 km ( 6 mi) WNW of Cobb, CA
map1.32021/05/17 10:15:4332.937N116.222W9.34 24 km (15 mi) SSW of Ocotillo Wells, CA
map2.42021/05/17 09:34:5839.405N120.277W-2.15 12 km ( 7 mi) NW of Truckee, CA
map0.92021/05/17 09:24:5338.836N122.808W1.93 8 km ( 5 mi) WNW of Cobb, CA
map0.82021/05/17 09:16:2832.708N116.334W18.83 17 km (11 mi) NE of Campo, CA
map1.22021/05/17 09:13:0035.907N117.680W3.96 21 km (13 mi) E of Little Lake, CA
map0.62021/05/17 09:02:4233.492N116.533W10.01 15 km ( 9 mi) ESE of Anza, CA
map0.22021/05/17 08:59:4638.822N122.765W1.98 4 km ( 2 mi) W of Cobb, CA
map2.22021/05/17 08:58:3940.311N124.424W15.35 32 km (20 mi) SSW of Ferndale, CA
map1.02021/05/17 08:56:3834.093N117.284W21.18 3 km ( 2 mi) NE of Colton, CA
map0.82021/05/17 08:41:1533.674N116.724W14.27 7 km ( 5 mi) S of Idyllwild, CA
map1.52021/05/17 08:41:1133.730N116.698W18.25 2 km ( 1 mi) ESE of Idyllwild, CA
map1.22021/05/17 08:38:2433.979N116.867W18.05 6 km ( 4 mi) N of Banning, CA
map1.12021/05/17 08:08:2338.768N122.734W-0.2 2 km ( 1 mi) ESE of The Geysers, CA
map0.72021/05/17 08:04:2438.839N122.809W1.91 8 km ( 5 mi) WNW of Cobb, CA
map0.92021/05/17 07:19:2933.957N116.718W8.42 8 km ( 5 mi) NE of Cabazon, CA
map2.02021/05/17 07:11:0835.676N117.489W4.36 13 km ( 8 mi) SW of Searles Valley, CA
map0.82021/05/17 06:41:4238.173N117.903W7.6 60 km (37 mi) W of Tonopah, NV
map0.92021/05/17 06:34:3538.187N117.871W4.5 58 km (36 mi) WNW of Tonopah, NV
map0.92021/05/17 06:04:3838.821N122.822W1.97 8 km ( 5 mi) NW of The Geysers, CA
map0.82021/05/17 06:03:1738.813N122.808W2.46 6 km ( 4 mi) NW of The Geysers, CA
map1.02021/05/17 05:55:4539.471N120.306W7.3 19 km (12 mi) NW of Truckee, CA
map0.42021/05/17 05:36:4733.694N116.728W14.83 5 km ( 3 mi) S of Idyllwild, CA
map0.92021/05/17 05:25:3138.828N122.802W1.22 7 km ( 4 mi) W of Cobb, CA
map1.42021/05/17 05:11:4937.163N117.380W0.9 62 km (39 mi) WNW of Beatty, NV
map0.62021/05/17 05:05:2232.988N115.561W11.47 3 km ( 2 mi) WNW of Brawley, CA
map0.82021/05/17 05:01:0238.801N122.770W3.64 3 km ( 2 mi) NNW of The Geysers, CA
map1.12021/05/17 04:59:2033.872N117.694W8.05 11 km ( 7 mi) E of Yorba Linda, CA
map1.82021/05/17 04:51:5437.894N118.554W2.48 47 km (29 mi) NE of Mammoth Lakes, CA
map1.42021/05/17 04:36:4938.187N117.870W5.7 57 km (36 mi) WNW of Tonopah, NV
map1.62021/05/17 04:34:1234.102N117.609W11.63 4 km ( 2 mi) SW of Rancho Cucamonga, CA
map1.12021/05/17 04:34:0538.009N118.455W11.1 59 km (37 mi) SSE of Hawthorne, NV
map1.72021/05/17 04:33:1436.813N121.534W3.39 4 km ( 2 mi) S of San Juan Bautista, CA
map1.52021/05/17 04:28:5837.905N118.559W4.65 47 km (29 mi) NE of Mammoth Lakes, CA
map0.92021/05/17 04:18:2238.841N122.824W1.69 9 km ( 6 mi) WNW of Cobb, CA
map1.52021/05/17 04:13:4233.872N117.692W8.46 11 km ( 7 mi) E of Yorba Linda, CA
map1.22021/05/17 04:00:5435.694N117.471W4.02 10 km ( 6 mi) SW of Searles Valley, CA
map2.02021/05/17 03:58:3032.749N115.830W4.21 15 km (10 mi) E of Ocotillo, CA
map1.82021/05/17 03:58:2536.614N121.215W8.47 23 km (14 mi) NNE of Soledad, CA
map1.62021/05/17 03:58:2138.700N122.407W7.78 14 km ( 9 mi) NNE of Angwin, CA
map-0.12021/05/17 03:50:3437.639N118.919W4.86 5 km ( 3 mi) E of Mammoth Lakes, CA
map1.82021/05/17 03:41:2938.136N118.044W2.6 67 km (41 mi) SE of Hawthorne, NV
map0.32021/05/17 03:34:2433.597N116.769W14.02 10 km ( 6 mi) WNW of Anza, CA
map0.72021/05/17 03:30:1438.173N117.880W9.6 58 km (36 mi) WNW of Tonopah, NV
map0.92021/05/17 03:25:2338.811N122.795W2.61 5 km ( 3 mi) NW of The Geysers, CA
map1.22021/05/17 03:24:1233.884N116.854W13.19 5 km ( 3 mi) SSE of Banning, CA
map2.02021/05/17 03:04:5338.151N118.032W2.3 66 km (41 mi) SE of Hawthorne, NV
map1.02021/05/17 02:34:3038.182N117.889W4.6 59 km (37 mi) WNW of Tonopah, NV
map1.12021/05/17 02:16:5737.519N118.853W0.15 17 km (11 mi) SE of Mammoth Lakes, CA
map0.42021/05/17 02:06:3038.837N122.800W2.08 7 km ( 4 mi) WNW of Cobb, CA
map1.32021/05/17 02:04:4136.465N117.955W8.57 17 km (11 mi) SE of Lone Pine, CA
map1.92021/05/17 01:57:3836.647N121.259W5 21 km (13 mi) SSE of Ridgemark, CA
map1.02021/05/17 01:54:2238.701N122.400W8.73 15 km ( 9 mi) NNE of Angwin, CA
map0.42021/05/17 01:33:0538.817N122.819W2.6 7 km ( 4 mi) NW of The Geysers, CA
map-0.02021/05/17 01:04:4733.666N116.745W15.62 9 km ( 5 mi) SSW of Idyllwild, CA
map2.02021/05/17 01:03:0138.700N122.407W7.2 14 km ( 9 mi) NNE of Angwin, CA
map0.92021/05/17 00:55:1438.835N122.808W1.41 8 km ( 5 mi) W of Cobb, CA
map1.52021/05/17 00:41:3238.819N122.802W2.85 6 km ( 4 mi) NW of The Geysers, CA
map2.32021/05/17 00:39:0238.701N122.414W4.75 14 km ( 9 mi) NNE of Angwin, CA
map0.22021/05/17 00:30:5533.583N116.802W5.69 12 km ( 8 mi) WNW of Anza, CA
map0.72021/05/17 00:26:0533.577N116.806W4.62 13 km ( 8 mi) W of Anza, CA
MAP3.12021/05/17 00:09:3140.308N124.425W15.3 33 km (20 mi) SSW of Ferndale, CA
map0.82021/05/16 23:59:3733.517N116.538W14.39 13 km ( 8 mi) ESE of Anza, CA
map2.92021/05/16 23:36:1040.124N123.917W17.45 8 km ( 5 mi) W of Redway, CA
map1.22021/05/16 23:17:0138.836N122.810W1.79 8 km ( 5 mi) W of Cobb, CA
map0.32021/05/16 22:27:1533.661N116.734W12.92 9 km ( 5 mi) S of Idyllwild, CA
map0.42021/05/16 22:13:0138.156N117.947W10.3 63 km (39 mi) W of Tonopah, NV
map1.52021/05/16 22:11:4338.811N122.820W3.43 7 km ( 4 mi) NW of The Geysers, CA
map0.92021/05/16 21:40:3438.804N122.828W3.19 7 km ( 4 mi) WNW of The Geysers, CA
map2.12021/05/16 21:21:3135.974N120.956W9.71 28 km (18 mi) NNW of Lake Nacimiento, CA
map0.82021/05/16 21:03:5834.033N117.241W14.19 2 km ( 2 mi) SE of Loma Linda, CA
map0.92021/05/16 21:03:0033.702N116.824W14.69 8 km ( 5 mi) SE of Valle Vista, CA
map0.82021/05/16 20:56:5638.155N117.889W7.7 58 km (36 mi) W of Tonopah, NV
map1.12021/05/16 20:47:2837.765N122.244W14.72 0 km ( 0 mi) W of Alameda, CA
map0.92021/05/16 20:38:1135.865N117.691W7.35 21 km (13 mi) ESE of Little Lake, CA
map0.72021/05/16 20:30:4836.999N116.220W7.3 49 km (30 mi) ENE of Beatty, NV
map1.42021/05/16 20:26:4938.810N122.813W0.73 6 km ( 4 mi) NW of The Geysers, CA
map1.52021/05/16 20:26:3838.809N122.812W0.84 6 km ( 4 mi) NW of The Geysers, CA
map1.52021/05/16 20:23:1633.172N116.108W10.96 4 km ( 2 mi) NE of Ocotillo Wells, CA
map1.52021/05/16 20:13:2638.189N117.754W12.1 48 km (30 mi) WNW of Tonopah, NV
map0.92021/05/16 20:00:3938.829N122.853W2.18 10 km ( 6 mi) NW of The Geysers, CA
map0.42021/05/16 19:32:3135.883N117.680W4.49 21 km (13 mi) ESE of Little Lake, CA
map0.82021/05/16 19:26:3238.819N122.802W3.16 6 km ( 4 mi) NW of The Geysers, CA
map0.82021/05/16 19:12:0438.833N122.818W1.71 8 km ( 5 mi) NW of The Geysers, CA
map-0.02021/05/16 18:49:3435.813N117.635W9.5 21 km (13 mi) WNW of Searles Valley, CA
map0.62021/05/16 18:49:0535.938N117.681W4.27 20 km (13 mi) E of Little Lake, CA
map1.02021/05/16 18:44:0238.826N122.798W1.72 6 km ( 4 mi) NW of The Geysers, CA
map0.42021/05/16 18:27:3233.650N116.724W12.63 10 km ( 6 mi) S of Idyllwild, CA
map0.42021/05/16 18:24:2438.835N122.817W1.55 8 km ( 5 mi) W of Cobb, CA
map1.12021/05/16 18:10:1533.867N116.819W15.67 6 km ( 4 mi) SSW of Cabazon, CA
map1.42021/05/16 17:32:4133.084N115.599W10.88 6 km ( 3 mi) NNE of Westmorland, CA
map0.32021/05/16 17:09:3138.789N122.767W2.58 2 km ( 1 mi) NW of The Geysers, CA
map1.62021/05/16 17:06:3137.526N118.783W4.98 21 km (13 mi) SE of Mammoth Lakes, CA
map0.82021/05/16 16:47:5837.544N118.832W3.17 17 km (10 mi) SE of Mammoth Lakes, CA
map1.02021/05/16 16:19:3235.660N117.519W6.61 15 km ( 9 mi) ENE of Ridgecrest, CA
map0.92021/05/16 16:11:4838.832N122.815W1.55 8 km ( 5 mi) NW of The Geysers, CA
map0.72021/05/16 15:42:4537.481N118.858W3.03 20 km (13 mi) SSE of Mammoth Lakes, CA
map0.62021/05/16 15:04:5038.814N122.817W3.39 7 km ( 4 mi) NW of The Geysers, CA
map1.12021/05/16 15:00:3938.817N122.823W2.33 7 km ( 5 mi) NW of The Geysers, CA
map0.82021/05/16 14:53:2135.589N117.373W6.6 20 km (12 mi) S of Trona, CA
map2.12021/05/16 14:30:4133.260N115.990W3.14 5 km ( 3 mi) SW of Salton City, CA
map1.32021/05/16 14:09:3837.909N118.557W5.87 48 km (30 mi) NE of Mammoth Lakes, CA
map0.52021/05/16 13:59:3735.797N117.620W11.08 20 km (12 mi) W of Searles Valley, CA
map-0.22021/05/16 13:59:1835.864N117.658W4.89 24 km (15 mi) ESE of Little Lake, CA
map1.12021/05/16 13:44:4238.822N122.801W2.65 6 km ( 4 mi) NW of The Geysers, CA
map1.22021/05/16 13:30:4832.725N117.398W17.39 18 km (11 mi) SW of La Jolla, CA
map0.12021/05/16 13:21:1135.569N117.541W7.85 13 km ( 8 mi) ESE of Ridgecrest, CA
map2.22021/05/16 13:20:5538.171N117.802W12.9 51 km (32 mi) WNW of Tonopah, NV
map1.02021/05/16 12:58:1938.172N117.958W5.4 65 km (40 mi) W of Tonopah, NV
map0.62021/05/16 12:39:2638.835N122.878W2.61 12 km ( 8 mi) WNW of The Geysers, CA
map0.72021/05/16 11:58:2435.715N117.517W6.36 12 km ( 7 mi) WSW of Searles Valley, CA
map1.22021/05/16 11:09:4237.921N118.583W0.1 47 km (29 mi) NE of Mammoth Lakes, CA
map1.22021/05/16 11:08:2537.893N118.544W0.0 48 km (30 mi) NE of Mammoth Lakes, CA
map0.42021/05/16 10:34:0838.832N122.814W2.33 8 km ( 5 mi) NW of The Geysers, CA
map0.42021/05/16 10:26:2038.831N122.814W1.99 8 km ( 5 mi) NW of The Geysers, CA
map1.32021/05/16 10:19:3538.172N117.891W7.4 59 km (37 mi) W of Tonopah, NV
map1.12021/05/16 10:10:3935.801N117.624W6.42 20 km (13 mi) W of Searles Valley, CA
map0.82021/05/16 10:00:1033.367N116.836W8.52 3 km ( 2 mi) ENE of Palomar Observatory, CA
map0.32021/05/16 09:58:5738.830N122.802W1.73 7 km ( 4 mi) W of Cobb, CA
map0.92021/05/16 09:45:5038.153N117.982W10.0 66 km (41 mi) W of Tonopah, NV
map2.02021/05/16 09:08:2535.648N117.427W9.43 13 km ( 8 mi) S of Searles Valley, CA
map1.42021/05/16 09:07:2735.108N119.114W20.69 25 km (15 mi) SW of Lamont, CA
map1.92021/05/16 09:01:4437.135N119.319W31.79 16 km (10 mi) ENE of Auberry, CA
map0.62021/05/16 08:50:5738.167N117.844W8.6 55 km (34 mi) WNW of Tonopah, NV
map0.92021/05/16 08:46:4338.817N122.767W1.13 4 km ( 2 mi) W of Cobb, CA
map1.52021/05/16 08:44:5836.019N117.799W1.45 13 km ( 8 mi) NE of Little Lake, CA
map1.82021/05/16 08:10:0836.986N120.860W-0.38 8 km ( 5 mi) S of Los Banos, CA
map0.52021/05/16 08:08:2338.835N122.773W1.77 5 km ( 3 mi) WNW of Cobb, CA
map1.82021/05/16 08:07:1040.125N123.922W17.72 8 km ( 5 mi) W of Redway, CA
map0.92021/05/16 07:33:5735.678N117.517W4.45 14 km ( 9 mi) SW of Searles Valley, CA
map1.32021/05/16 07:25:4538.172N117.906W9.7 60 km (37 mi) W of Tonopah, NV
map1.72021/05/16 07:23:4637.068N122.259W7.96 10 km ( 6 mi) WNW of Bonny Doon, CA
map1.32021/05/16 07:20:5335.721N117.555W8.15 15 km ( 9 mi) WSW of Searles Valley, CA
map1.92021/05/16 07:17:0436.468N117.962W8.08 16 km (10 mi) SE of Lone Pine, CA
map0.92021/05/16 07:16:2535.819N117.644W10.3 22 km (14 mi) N of Ridgecrest, CA
map1.62021/05/16 06:57:1835.758N117.574W5.95 15 km (10 mi) W of Searles Valley, CA
map0.82021/05/16 06:46:0038.817N122.815W2.87 7 km ( 4 mi) NW of The Geysers, CA
map0.42021/05/16 06:41:1238.836N122.808W1.9 7 km ( 5 mi) WNW of Cobb, CA
map2.02021/05/16 06:37:5037.730N117.329W0.0 39 km (24 mi) SSW of Tonopah, NV
map0.82021/05/16 06:29:1638.809N122.770W1.43 4 km ( 2 mi) NNW of The Geysers, CA
map0.82021/05/16 06:28:2033.826N116.862W15.14 9 km ( 6 mi) NNE of Valle Vista, CA
map1.12021/05/16 06:27:2935.705N117.589W7.36 12 km ( 8 mi) NE of Ridgecrest, CA
map2.92021/05/16 06:26:2840.119N123.923W18.77 8 km ( 5 mi) W of Redway, CA
map0.92021/05/16 06:16:4338.840N122.810W1.78 8 km ( 5 mi) WNW of Cobb, CA
map0.62021/05/16 06:12:1133.682N116.682W16.51 7 km ( 5 mi) SSE of Idyllwild, CA
map0.72021/05/16 05:57:3738.140N118.023W1.8 68 km (42 mi) SE of Hawthorne, NV
map1.12021/05/16 05:46:4736.140N118.073W0.97 15 km (10 mi) NW of Coso Junction, CA
map0.92021/05/16 05:28:4637.543N118.826W3.72 17 km (11 mi) SE of Mammoth Lakes, CA
map0.92021/05/16 05:25:1137.814N122.021W8.78 2 km ( 1 mi) WSW of Danville, CA
map0.82021/05/16 05:23:3738.153N117.906W10.0 60 km (37 mi) W of Tonopah, NV
map1.72021/05/16 04:59:1736.439N120.997W6.96 26 km (16 mi) ENE of Greenfield, CA
map1.62021/05/16 04:53:2538.173N117.908W9.4 60 km (38 mi) W of Tonopah, NV
map1.42021/05/16 04:46:5638.163N117.891W10.2 59 km (37 mi) W of Tonopah, NV
map2.22021/05/16 04:37:5237.298N120.013W24.53 21 km (13 mi) S of Mariposa, CA
map0.12021/05/16 04:30:0736.624N116.244W15.3 51 km (31 mi) NNW of Pahrump, NV
map0.42021/05/16 03:51:0338.166N118.084W8.6 62 km (38 mi) SE of Hawthorne, NV
map0.72021/05/16 03:46:4438.820N122.843W2.14 9 km ( 6 mi) WNW of The Geysers, CA
map0.62021/05/16 03:38:5337.989N118.523W15.9 56 km (35 mi) NE of Mammoth Lakes, CA
map0.72021/05/16 03:38:0938.824N122.767W2.18 4 km ( 2 mi) W of Cobb, CA
map0.42021/05/16 03:31:0138.817N122.766W2.65 4 km ( 2 mi) W of Cobb, CA
map1.02021/05/16 03:06:3540.320N121.245W9.88 2 km ( 1 mi) NW of Chester, CA
map0.42021/05/16 02:51:4638.829N122.815W2.29 8 km ( 5 mi) NW of The Geysers, CA
map1.22021/05/16 02:41:5437.728N121.976W5.07 5 km ( 3 mi) NW of Dublin, CA
map0.52021/05/16 02:26:4038.153N117.882W13.1 58 km (36 mi) W of Tonopah, NV
map0.42021/05/16 02:22:2633.710N116.749W16.66 4 km ( 3 mi) SW of Idyllwild, CA
map0.72021/05/16 02:18:0637.331N121.692W5.63 12 km ( 8 mi) ESE of East Foothills, CA
map1.12021/05/16 02:13:2537.727N121.981W5.79 5 km ( 3 mi) NW of Dublin, CA
map-0.22021/05/16 01:58:4735.691N117.502W3.09 12 km ( 8 mi) SW of Searles Valley, CA
map0.12021/05/16 01:58:3235.685N117.508W2.36 13 km ( 8 mi) SW of Searles Valley, CA
map1.32021/05/16 01:56:1635.851N117.681W6.42 22 km (14 mi) ESE of Little Lake, CA
map1.62021/05/16 01:53:2437.379N117.139W5.0 62 km (39 mi) NNW of Beatty, NV
map0.92021/05/16 01:51:4438.187N117.868W6.4 57 km (36 mi) WNW of Tonopah, NV
map0.52021/05/16 01:39:5633.592N116.686W4.05 4 km ( 3 mi) NNW of Anza, CA
MAP3.62021/05/16 01:39:5538.189N117.865W5.3 57 km (35 mi) WNW of Tonopah, NV
map0.92021/05/16 01:22:2738.847N122.813W0.81 8 km ( 5 mi) WNW of Cobb, CA
map0.92021/05/16 01:21:2238.827N122.855W2.55 10 km ( 6 mi) WNW of The Geysers, CA
map1.22021/05/16 01:12:2737.402N117.106W0.0 63 km (39 mi) NNW of Beatty, NV
map0.42021/05/16 00:53:0333.593N116.811W4.95 13 km ( 8 mi) WNW of Anza, CA
map0.52021/05/16 00:49:1438.167N117.888W8.4 59 km (36 mi) W of Tonopah, NV
map1.52021/05/16 00:46:2633.197N116.059W7.35 9 km ( 6 mi) NE of Ocotillo Wells, CA
map1.62021/05/16 00:46:2332.755N115.812W6.84 17 km (11 mi) E of Ocotillo, CA
map2.12021/05/16 00:44:1236.675N116.263W6.1 51 km (32 mi) ESE of Beatty, NV
map2.12021/05/16 00:37:2738.165N117.878W11.5 58 km (36 mi) W of Tonopah, NV
map1.12021/05/16 00:30:0233.141N116.305W9.79 14 km ( 9 mi) SSE of Borrego Springs, CA
map1.02021/05/16 00:26:3538.159N117.956W8.5 64 km (40 mi) W of Tonopah, NV
map1.62021/05/16 00:09:2734.045N117.551W11.65 7 km ( 4 mi) NNW of Mira Loma, CA
map1.32021/05/15 23:54:1634.050N117.205W13.3 2 km ( 1 mi) WSW of Redlands, CA
map0.82021/05/15 23:34:5833.984N116.744W17.46 8 km ( 5 mi) NNE of Cabazon, CA
map0.82021/05/15 23:02:2933.927N116.365W3.38 12 km ( 8 mi) N of Thousand Palms, CA
map0.72021/05/15 22:53:0837.412N117.040W1.7 61 km (38 mi) NNW of Beatty, NV
map2.12021/05/15 22:49:5234.361N116.463W5.09 28 km (17 mi) N of Yucca Valley, CA
map1.22021/05/15 22:40:0633.697N116.804W16.83 9 km ( 6 mi) WSW of Idyllwild, CA
map1.12021/05/15 22:19:4838.173N117.829W8.8 54 km (33 mi) WNW of Tonopah, NV
map1.12021/05/15 21:18:4438.838N122.808W1.78 8 km ( 5 mi) WNW of Cobb, CA
map1.32021/05/15 21:05:5533.138N116.490W11.52 12 km ( 8 mi) ENE of Julian, CA
map1.32021/05/15 20:28:1732.932N116.223W10.57 25 km (16 mi) SSW of Ocotillo Wells, CA
map0.82021/05/15 20:07:1838.162N117.984W4.5 67 km (41 mi) W of Tonopah, NV
map0.82021/05/15 19:34:2235.873N117.700W9.13 20 km (12 mi) ESE of Little Lake, CA
map1.32021/05/15 19:15:5738.170N117.968W1.9 65 km (41 mi) W of Tonopah, NV
map1.32021/05/15 19:02:2635.513N118.492W6.89 8 km ( 5 mi) S of Bodfish, CA
map1.02021/05/15 18:06:2438.822N122.762W2.22 3 km ( 2 mi) W of Cobb, CA
map0.22021/05/15 17:32:5038.798N122.749W2.27 2 km ( 1 mi) NNE of The Geysers, CA
map2.02021/05/15 17:09:1339.873N120.478W3.52 7 km ( 4 mi) N of Portola, CA
map1.02021/05/15 16:59:0535.696N117.484W2.67 11 km ( 7 mi) SW of Searles Valley, CA
map1.02021/05/15 16:28:3338.808N122.827W2.26 7 km ( 4 mi) WNW of The Geysers, CA
map0.32021/05/15 16:26:3235.677N117.444W6.7 11 km ( 7 mi) SSW of Searles Valley, CA
map1.22021/05/15 16:26:0036.099N117.845W3.37 11 km ( 7 mi) ENE of Coso Junction, CA
map0.92021/05/15 16:25:4936.465N117.881W-1.55 22 km (13 mi) SE of Lone Pine, CA
map2.02021/05/15 16:13:1535.591N117.404W3.28 19 km (12 mi) S of Trona, CA
map-0.22021/05/15 16:11:5633.664N116.219W6.75 5 km ( 3 mi) WSW of Coachella, CA
map0.92021/05/15 16:08:0937.603N118.915W3.88 7 km ( 4 mi) SE of Mammoth Lakes, CA
map2.42021/05/15 16:04:1035.585N117.419W6.75 20 km (13 mi) S of Trona, CA
map1.22021/05/15 16:01:5835.645N117.558W9.67 11 km ( 7 mi) ENE of Ridgecrest, CA
map1.52021/05/15 15:07:3433.064N115.559W7.43 7 km ( 4 mi) ENE of Westmorland, CA
map0.52021/05/15 14:54:5934.154N116.448W6.96 5 km ( 3 mi) NNW of Yucca Valley, CA
map0.92021/05/15 14:41:0338.842N122.841W1.96 10 km ( 6 mi) NW of The Geysers, CA
map1.52021/05/15 14:23:4337.809N116.064W4.6 93 km (58 mi) WNW of Alamo, NV
map0.92021/05/15 14:18:5638.804N122.785W0.64 4 km ( 2 mi) NW of The Geysers, CA
map0.42021/05/15 14:14:3038.842N122.843W1.65 10 km ( 6 mi) NW of The Geysers, CA
map1.22021/05/15 13:55:3337.146N121.519W8.2 11 km ( 7 mi) NE of San Martin, CA
map1.32021/05/15 13:53:1837.503N121.686W3.86 18 km (11 mi) NE of East Foothills, CA
map1.52021/05/15 13:51:1439.463N120.292W7.4 18 km (11 mi) NNW of Truckee, CA
map1.72021/05/15 13:00:1033.343N116.852W7.7 2 km ( 1 mi) SE of Palomar Observatory, CA
map1.52021/05/15 12:54:2032.755N115.815W2.56 17 km (10 mi) E of Ocotillo, CA
map-0.02021/05/15 12:42:3035.693N117.429W1.04 9 km ( 5 mi) SSW of Searles Valley, CA
map0.52021/05/15 12:36:0833.601N116.625W14.08 7 km ( 4 mi) NE of Anza, CA
map0.52021/05/15 12:35:1633.595N116.627W13.88 6 km ( 4 mi) NE of Anza, CA
map0.92021/05/15 12:07:0938.808N122.738W2.32 2 km ( 1 mi) SW of Cobb, CA
map1.42021/05/15 11:47:5834.019N117.202W14.51 4 km ( 3 mi) SSW of Redlands, CA
map1.32021/05/15 11:14:0638.586N122.693W1.92 9 km ( 6 mi) NNE of Larkfield-Wikiup, CA
map0.62021/05/15 11:08:3738.764N122.731W1.4 3 km ( 2 mi) SE of The Geysers, CA
map0.82021/05/15 10:59:0538.797N122.806W6.21 5 km ( 3 mi) WNW of The Geysers, CA
map1.62021/05/15 10:41:3636.451N121.013W8.13 25 km (16 mi) NE of Greenfield, CA
map1.22021/05/15 10:34:2738.825N122.766W2.13 4 km ( 2 mi) W of Cobb, CA
map1.32021/05/15 10:15:2335.593N117.383W1.38 19 km (12 mi) S of Trona, CA
map1.62021/05/15 10:13:2133.170N116.118W9.49 3 km ( 2 mi) NNE of Ocotillo Wells, CA
map-0.12021/05/15 10:11:2535.628N117.427W7.75 16 km (10 mi) S of Searles Valley, CA
map-0.12021/05/15 10:10:5535.835N117.631W12.41 22 km (14 mi) WNW of Searles Valley, CA
map0.82021/05/15 09:53:0233.705N116.721W18.02 4 km ( 2 mi) S of Idyllwild, CA
map1.12021/05/15 09:52:5333.699N116.717W18.24 5 km ( 3 mi) S of Idyllwild, CA
map1.22021/05/15 09:51:3832.753N115.827W5.35 16 km (10 mi) E of Ocotillo, CA
map2.02021/05/15 09:39:4539.672N123.541W2.71 5 km ( 3 mi) WSW of Laytonville, CA
map1.22021/05/15 09:31:0238.705N122.397W8.9 15 km ( 9 mi) NNE of Angwin, CA
map0.72021/05/15 09:30:5638.702N122.401W7.2 15 km ( 9 mi) NNE of Angwin, CA
map1.42021/05/15 09:14:4238.183N117.760W11.2 48 km (30 mi) WNW of Tonopah, NV
map1.12021/05/15 09:10:1635.681N117.531W7.87 15 km ( 9 mi) ENE of Ridgecrest, CA
map1.72021/05/15 08:59:0132.946N115.542W6.2 4 km ( 2 mi) SSW of Brawley, CA
map1.62021/05/15 08:54:2236.678N121.333W6.73 15 km ( 9 mi) S of Ridgemark, CA
map0.82021/05/15 08:48:3432.934N116.359W15.46 20 km (13 mi) NE of Pine Valley, CA
map0.32021/05/15 08:44:4535.858N117.691W9.25 21 km (13 mi) ESE of Little Lake, CA
map-0.42021/05/15 08:44:3735.902N117.683W8.35 21 km (13 mi) E of Little Lake, CA
map0.42021/05/15 08:30:5537.519N118.866W3.59 16 km (10 mi) SE of Mammoth Lakes, CA
map0.82021/05/15 08:26:3338.812N122.795W2.85 5 km ( 3 mi) NW of The Geysers, CA
map0.92021/05/15 08:20:2338.837N122.809W2.15 8 km ( 5 mi) WNW of Cobb, CA
map1.22021/05/15 07:33:2337.307N115.082W16.0 10 km ( 6 mi) SE of Alamo, NV
map1.62021/05/15 07:27:0438.821N122.856W2.3 10 km ( 6 mi) WNW of The Geysers, CA
map0.12021/05/15 07:15:0833.538N116.524W13.56 14 km ( 9 mi) E of Anza, CA
map2.02021/05/15 07:04:5337.100N117.306W13.2 53 km (33 mi) WNW of Beatty, NV
map1.22021/05/15 07:04:1738.152N117.853W7.4 55 km (34 mi) W of Tonopah, NV
map0.92021/05/15 05:57:1338.840N122.879W2.44 13 km ( 8 mi) ENE of Cloverdale, CA
map0.62021/05/15 05:52:3738.787N122.749W-0.12 1 km ( 1 mi) NNE of The Geysers, CA
map1.02021/05/15 05:47:0133.526N116.529W13.03 14 km ( 9 mi) ESE of Anza, CA
map0.82021/05/15 05:46:5633.542N116.521W14.12 14 km ( 9 mi) E of Anza, CA
map0.92021/05/15 05:45:5735.059N118.329W2.1 14 km ( 8 mi) SE of Tehachapi, CA
map1.62021/05/15 05:42:1434.280N116.802W7.18 4 km ( 3 mi) ENE of Big Bear City, CA
map0.92021/05/15 05:41:2138.821N122.855W2.33 10 km ( 6 mi) WNW of The Geysers, CA
map1.22021/05/15 05:37:3732.741N115.817W3.36 17 km (10 mi) E of Ocotillo, CA
map1.12021/05/15 05:35:2134.179N116.796W3.61 10 km ( 6 mi) SSE of Big Bear City, CA
map0.62021/05/15 05:33:2433.534N116.524W13.82 14 km ( 9 mi) E of Anza, CA
map1.12021/05/15 05:21:1437.737N121.967W5.74 5 km ( 3 mi) NW of Dublin, CA
map1.32021/05/15 05:18:1238.821N122.856W2.4 10 km ( 6 mi) WNW of The Geysers, CA
map0.02021/05/15 05:13:0933.532N116.525W12.93 14 km ( 9 mi) E of Anza, CA
map0.82021/05/15 04:52:4134.068N117.524W1.24 7 km ( 4 mi) WSW of Fontana, CA
map0.92021/05/15 04:46:1834.233N118.107W6.43 5 km ( 3 mi) NNE of Altadena, CA
map1.42021/05/15 04:40:5935.880N117.701W2.64 20 km (12 mi) ESE of Little Lake, CA
map1.02021/05/15 04:39:0035.904N117.694W3.04 20 km (12 mi) E of Little Lake, CA
map1.02021/05/15 04:37:3433.100N115.602W8.05 7 km ( 4 mi) NNE of Westmorland, CA
map0.72021/05/15 04:37:2233.072N115.624W19.88 4 km ( 2 mi) N of Westmorland, CA
map1.52021/05/15 04:28:1536.553N118.011W6.96 6 km ( 4 mi) SE of Lone Pine, CA
map1.02021/05/15 04:21:3535.793N117.604W12.74 18 km (11 mi) W of Searles Valley, CA
map1.42021/05/15 04:20:4839.470N120.317W9.8 19 km (12 mi) NW of Truckee, CA
map0.92021/05/15 04:19:4736.095N117.856W3.54 10 km ( 6 mi) NE of Coso Junction, CA
map1.32021/05/15 04:17:5137.730N121.969W4.48 4 km ( 3 mi) NW of Dublin, CA
map1.52021/05/15 04:02:2932.739N115.821W3.15 16 km (10 mi) E of Ocotillo, CA
map0.52021/05/15 03:51:2233.478N116.561W10.23 14 km ( 8 mi) SE of Anza, CA
map0.12021/05/15 03:51:2033.380N116.404W9.95 14 km ( 9 mi) N of Borrego Springs, CA
map1.22021/05/15 03:29:5733.292N116.239W8.2 13 km ( 8 mi) ENE of Borrego Springs, CA
map0.82021/05/15 03:29:4533.286N116.228W8.32 14 km ( 9 mi) ENE of Borrego Springs, CA
map1.62021/05/15 03:28:4633.284N116.237W11.13 13 km ( 8 mi) ENE of Borrego Springs, CA
map0.62021/05/15 03:27:1833.479N116.555W10.18 14 km ( 9 mi) SE of Anza, CA
map1.02021/05/15 03:26:5235.875N117.689W6.3 21 km (13 mi) ESE of Little Lake, CA
map0.42021/05/15 02:59:4838.817N122.826W2.07 7 km ( 5 mi) NW of The Geysers, CA
map0.92021/05/15 02:52:2938.822N122.803W2.41 6 km ( 4 mi) NW of The Geysers, CA
map1.02021/05/15 02:39:0240.264N121.212W4.51 5 km ( 3 mi) SSE of Chester, CA
map0.62021/05/15 02:32:0838.780N122.755W0.97 0 km ( 0 mi) NNE of The Geysers, CA
map1.32021/05/15 02:19:3734.266N116.924W6.86 3 km ( 2 mi) NNW of Big Bear Lake, CA
map1.62021/05/15 02:08:4935.968N117.663W3.65 22 km (14 mi) E of Little Lake, CA
map1.02021/05/15 02:06:3635.874N117.689W6.18 21 km (13 mi) ESE of Little Lake, CA
map1.52021/05/15 01:59:2537.725N121.975W5.08 4 km ( 3 mi) NW of Dublin, CA
map0.62021/05/15 01:43:0933.591N116.805W7.07 13 km ( 8 mi) WNW of Anza, CA
map0.32021/05/15 01:29:4535.716N117.547W4.72 14 km ( 9 mi) WSW of Searles Valley, CA
map0.12021/05/15 01:29:2735.918N117.680W9.66 21 km (13 mi) E of Little Lake, CA
map1.62021/05/15 01:22:4033.164N116.374W7.54 10 km ( 6 mi) S of Borrego Springs, CA
map0.82021/05/15 01:15:1837.540N118.871W4.62 14 km ( 9 mi) SE of Mammoth Lakes, CA
map0.42021/05/15 01:03:0033.693N116.762W17.14 7 km ( 4 mi) SW of Idyllwild, CA
map0.32021/05/15 00:43:4437.533N118.877W2.61 15 km ( 9 mi) SE of Mammoth Lakes, CA
map0.32021/05/15 00:43:2833.578N116.808W4.71 13 km ( 8 mi) WNW of Anza, CA
map0.92021/05/15 00:17:3934.014N116.973W8.71 7 km ( 4 mi) ESE of Yucaipa, CA
map2.52021/05/15 00:14:2137.544N118.780W8.1 20 km (13 mi) ESE of Mammoth Lakes, CA
map0.72021/05/14 23:42:4438.789N122.736W1.55 2 km ( 1 mi) NE of The Geysers, CA
map2.32021/05/14 23:17:0438.787N122.739W1.04 2 km ( 1 mi) NE of The Geysers, CA
map0.72021/05/14 23:17:0234.062N117.263W15.63 2 km ( 1 mi) N of Loma Linda, CA
map0.82021/05/14 23:02:0938.163N117.922W8.4 61 km (38 mi) W of Tonopah, NV
map1.12021/05/14 23:02:0537.166N116.194W0.0 57 km (36 mi) ENE of Beatty, NV
map1.42021/05/14 22:55:1935.070N118.839W3.11 16 km (10 mi) S of Arvin, CA
map0.52021/05/14 22:46:5333.470N116.421W13.2 24 km (15 mi) SSW of La Quinta, CA
map0.62021/05/14 22:41:4333.924N116.666W17.04 11 km ( 7 mi) E of Cabazon, CA
map-0.32021/05/14 21:51:3435.874N117.674W4.34 22 km (14 mi) ESE of Little Lake, CA
map1.12021/05/14 21:44:0136.553N121.052W14.2 28 km (18 mi) ENE of Soledad, CA
map0.82021/05/14 20:54:0838.824N122.804W2.72 7 km ( 4 mi) NW of The Geysers, CA
map1.62021/05/14 20:48:1238.830N122.819W1.92 8 km ( 5 mi) NW of The Geysers, CA
map2.42021/05/14 20:47:0237.264N119.420W31.61 21 km (13 mi) NNE of Auberry, CA
map1.72021/05/14 20:03:5639.141N120.028W8.9 8 km ( 5 mi) SE of Dollar Point, CA
map2.72021/05/14 20:02:1240.735N124.183W5.29 1 km ( 1 mi) NNE of Humboldt Hill, CA
map1.02021/05/14 19:45:3035.694N117.548W4.76 14 km ( 9 mi) NE of Ridgecrest, CA
map0.72021/05/14 19:42:3138.843N122.881W2.39 13 km ( 8 mi) ENE of Cloverdale, CA
map0.72021/05/14 19:24:4735.867N117.669W8.53 23 km (14 mi) ESE of Little Lake, CA
map0.92021/05/14 18:59:1436.042N120.616W6.82 23 km (14 mi) NW of Parkfield, CA
map0.12021/05/14 18:34:5837.639N118.975W4.19 0 km ( 0 mi) NE of Mammoth Lakes, CA
map0.42021/05/14 18:33:5037.638N118.975W3.91 0 km ( 0 mi) ENE of Mammoth Lakes, CA
map1.32021/05/14 18:28:1135.704N117.540W7.03 14 km ( 9 mi) WSW of Searles Valley, CA
map0.52021/05/14 18:24:2235.922N117.729W9.13 16 km (10 mi) E of Little Lake, CA
map0.72021/05/14 18:12:2338.777N122.730W1.54 2 km ( 1 mi) E of The Geysers, CA
map0.92021/05/14 18:05:2138.158N117.965W0.9 65 km (40 mi) W of Tonopah, NV
map1.42021/05/14 17:59:3937.942N118.541W0.0 51 km (32 mi) NE of Mammoth Lakes, CA
map1.02021/05/14 16:59:5538.787N122.745W0.64 1 km ( 1 mi) NE of The Geysers, CA
map1.32021/05/14 16:59:3638.773N122.738W-0.17 2 km ( 1 mi) ESE of The Geysers, CA
MAP3.02021/05/14 16:59:0538.772N122.734W2.2 2 km ( 1 mi) ESE of The Geysers, CA
map1.12021/05/14 16:34:5135.938N117.681W2.99 20 km (13 mi) E of Little Lake, CA
map2.12021/05/14 16:16:5437.899N118.555W5 47 km (29 mi) NE of Mammoth Lakes, CA
map0.92021/05/14 16:15:1432.756N115.830W1.88 15 km (10 mi) E of Ocotillo, CA
map2.62021/05/14 15:11:1437.902N118.553W6.89 48 km (30 mi) NE of Mammoth Lakes, CA
map1.62021/05/14 14:37:3839.624N123.448W7.72 8 km ( 5 mi) SSE of Laytonville, CA
map1.52021/05/14 14:32:1435.762N117.587W4.25 17 km (10 mi) W of Searles Valley, CA
map0.72021/05/14 14:21:1133.498N116.467W5.68 20 km (13 mi) ESE of Anza, CA
map1.42021/05/14 13:13:3338.181N117.863W5.9 57 km (35 mi) WNW of Tonopah, NV
map1.32021/05/14 13:02:4235.875N117.693W3.14 20 km (13 mi) ESE of Little Lake, CA
map1.02021/05/14 13:00:4332.815N117.070W3.02 7 km ( 4 mi) NW of La Mesa, CA
map0.62021/05/14 12:53:4138.839N122.838W1.36 10 km ( 6 mi) NW of The Geysers, CA
map0.92021/05/14 12:44:5138.841N122.825W1.81 9 km ( 6 mi) WNW of Cobb, CA
map0.92021/05/14 12:37:4638.821N122.784W1.24 5 km ( 3 mi) W of Cobb, CA
map1.02021/05/14 12:37:1433.490N116.498W10.76 18 km (11 mi) ESE of Anza, CA
map0.82021/05/14 12:25:2835.870N117.687W5.48 21 km (13 mi) ESE of Little Lake, CA
map1.22021/05/14 12:14:3035.874N117.689W4.23 21 km (13 mi) ESE of Little Lake, CA
map0.82021/05/14 12:01:4838.164N118.073W7.6 63 km (39 mi) SE of Hawthorne, NV
map1.02021/05/14 11:40:0136.096N117.861W2.67 10 km ( 6 mi) NE of Coso Junction, CA
map0.92021/05/14 11:38:4938.841N122.838W1.8 10 km ( 6 mi) NW of The Geysers, CA
map1.62021/05/14 11:38:4537.031N121.749W4.83 7 km ( 4 mi) NE of Corralitos, CA
map1.12021/05/14 11:38:2235.059N118.337W-1.01 2 km ( 1 mi) NW of Quarry at MOJAVE (Probable quarry explosion)
map1.52021/05/14 11:31:3537.903N118.559W6.11 47 km (29 mi) NE of Mammoth Lakes, CA
map-0.12021/05/14 11:28:3835.868N117.669W4.01 23 km (14 mi) ESE of Little Lake, CA
map2.02021/05/14 11:25:5736.564N121.120W5.07 24 km (15 mi) NE of Soledad, CA
map1.42021/05/14 11:16:1033.072N115.006W-0.25 1 km ( 1 mi) NNW of Quarry at RUN (Probable quarry explosion)
map0.82021/05/14 10:44:3238.818N122.767W1.99 4 km ( 2 mi) W of Cobb, CA
map1.62021/05/14 10:44:2738.818N122.766W2 4 km ( 2 mi) W of Cobb, CA
map0.52021/05/14 10:40:4037.553N118.836W2.76 16 km (10 mi) SE of Mammoth Lakes, CA
map0.82021/05/14 10:39:1838.823N122.794W2.99 6 km ( 4 mi) NNW of The Geysers, CA
map1.92021/05/14 10:32:0433.839N117.488W-0.48 2 km ( 1 mi) SE of Quarry at CORONA (Probable quarry explosion)
map1.82021/05/14 10:23:3738.103N118.217W2.2 59 km (37 mi) SE of Hawthorne, NV
map0.92021/05/14 10:23:2138.824N122.767W2.26 4 km ( 2 mi) W of Cobb, CA
map0.62021/05/14 10:18:2335.711N117.547W10.51 14 km ( 9 mi) WSW of Searles Valley, CA
map1.52021/05/14 10:05:5937.768N122.232W6.55 1 km ( 1 mi) ENE of Alameda, CA
map0.72021/05/14 09:56:0635.922N117.730W8.46 16 km (10 mi) E of Little Lake, CA
map1.22021/05/14 09:50:5632.613N115.742W9.58 15 km ( 9 mi) WNW of Progreso, B.C., MX
map0.62021/05/14 09:46:4633.947N116.919W16.74 5 km ( 3 mi) WNW of Banning, CA
map1.22021/05/14 09:39:4333.138N115.969W7.56 15 km ( 9 mi) E of Ocotillo Wells, CA
map1.12021/05/14 09:36:1934.339N116.886W-1.41 4 km ( 2 mi) WSW of Quarry at CUSHENBURY (Probable quarry explosion)
map1.12021/05/14 09:04:4534.040N116.944W15.27 9 km ( 6 mi) E of Yucaipa, CA
map1.52021/05/14 08:55:3535.940N117.685W2.58 20 km (12 mi) E of Little Lake, CA
map1.12021/05/14 08:53:3638.149N117.998W3.1 68 km (42 mi) W of Tonopah, NV
map1.62021/05/14 08:26:2637.905N118.557W4.15 48 km (30 mi) NE of Mammoth Lakes, CA
map1.12021/05/14 08:17:5132.889N116.205W12.76 26 km (16 mi) NW of Ocotillo, CA
map-0.32021/05/14 07:53:4235.654N117.493W9.34 15 km ( 9 mi) SSW of Searles Valley, CA
map0.52021/05/14 07:53:1436.055N117.375W9.35 32 km (20 mi) N of Searles Valley, CA
map0.82021/05/14 07:23:4237.460N118.808W3.65 25 km (15 mi) SE of Mammoth Lakes, CA
map0.32021/05/14 07:17:0435.676N117.568W1.95 12 km ( 7 mi) ENE of Ridgecrest, CA
map0.52021/05/14 07:16:5833.887N116.750W15.29 5 km ( 3 mi) SE of Cabazon, CA
map0.72021/05/14 07:13:0737.474N118.805W6.21 24 km (15 mi) SE of Mammoth Lakes, CA
map2.22021/05/14 07:04:5635.681N117.523W8.84 14 km ( 9 mi) SW of Searles Valley, CA
map0.92021/05/14 06:56:5234.419N116.474W12.37 34 km (21 mi) N of Yucca Valley, CA
map1.12021/05/14 06:50:4034.455N117.919W10.3 6 km ( 4 mi) S of Pearblossom, CA
map1.22021/05/14 06:43:5332.760N115.809W1.01 17 km (11 mi) E of Ocotillo, CA
map1.42021/05/14 06:36:3838.156N117.868W4.6 57 km (35 mi) W of Tonopah, NV
map2.02021/05/14 05:48:2133.940N115.845W4.98 30 km (19 mi) SE of Twentynine Palms, CA
map0.12021/05/14 05:28:3133.700N116.722W16.76 4 km ( 3 mi) S of Idyllwild, CA
map0.62021/05/14 05:19:0135.863N117.679W8.96 22 km (14 mi) ESE of Little Lake, CA
map1.02021/05/14 05:16:4835.775N117.588W7.69 17 km (10 mi) W of Searles Valley, CA
map0.52021/05/14 05:01:0738.822N122.764W2.07 4 km ( 2 mi) W of Cobb, CA
map1.02021/05/14 04:26:2435.504N118.388W7.91 13 km ( 8 mi) SE of Bodfish, CA
map0.52021/05/14 03:54:3133.410N116.413W10.93 18 km (11 mi) NNW of Borrego Springs, CA
map1.52021/05/14 03:48:3338.709N122.538W5.49 8 km ( 5 mi) SE of Middletown, CA
map0.42021/05/14 03:09:1738.826N122.799W3.02 6 km ( 4 mi) NW of The Geysers, CA
map1.12021/05/14 02:53:2436.140N117.916W3.31 11 km ( 7 mi) NNE of Coso Junction, CA
map1.02021/05/14 02:52:4337.602N122.442W7.78 4 km ( 3 mi) ESE of Pacifica, CA
map1.12021/05/14 02:52:1436.027N117.820W0.28 12 km ( 7 mi) E of Coso Junction, CA
map0.42021/05/14 02:17:1133.995N117.007W11.13 4 km ( 3 mi) E of Calimesa, CA
map1.22021/05/14 02:16:2432.951N115.551W9.16 4 km ( 2 mi) SSW of Brawley, CA
map1.52021/05/14 02:02:3435.964N117.463W6.36 23 km (14 mi) NNW of Searles Valley, CA
map1.52021/05/14 02:02:2735.969N117.469W6.13 23 km (14 mi) NNW of Searles Valley, CA
map1.02021/05/14 01:58:0338.834N122.819W1.09 8 km ( 5 mi) NW of The Geysers, CA
map0.52021/05/14 01:55:5033.503N116.789W6.22 10 km ( 6 mi) NE of Aguanga, CA
map1.32021/05/14 01:54:3033.035N116.437W7.28 16 km (10 mi) ESE of Julian, CA
map0.42021/05/14 01:45:0535.809N117.608W8.39 19 km (12 mi) WNW of Searles Valley, CA
map1.22021/05/14 01:34:3733.584N116.808W7.7 13 km ( 8 mi) WNW of Anza, CA
map0.92021/05/14 01:27:4038.094N118.188W1.7 61 km (38 mi) SE of Hawthorne, NV
map2.02021/05/14 01:17:5032.952N115.561W11.12 4 km ( 3 mi) SW of Brawley, CA
map1.32021/05/14 01:12:0132.950N115.563W8.42 4 km ( 3 mi) SW of Brawley, CA
map0.92021/05/14 01:11:4135.684N117.525W3.9 14 km ( 9 mi) SW of Searles Valley, CA
map1.02021/05/14 01:03:3133.170N116.385W7.78 10 km ( 6 mi) S of Borrego Springs, CA
map0.92021/05/14 01:03:2833.169N116.376W6.46 10 km ( 6 mi) S of Borrego Springs, CA
map1.22021/05/14 00:51:2335.659N117.459W10.2 13 km ( 8 mi) SSW of Searles Valley, CA
map0.52021/05/14 00:51:1035.827N117.643W9.51 23 km (14 mi) WNW of Searles Valley, CA
map2.12021/05/14 00:43:1641.460N122.892W13.97 36 km (23 mi) SW of Yreka, CA
map0.72021/05/14 00:39:5333.469N116.492W11.72 19 km (12 mi) ESE of Anza, CA
map1.82021/05/13 23:51:3932.950N115.561W10.83 4 km ( 3 mi) SW of Brawley, CA
map1.32021/05/13 23:46:5532.945N115.561W8.02 5 km ( 3 mi) SW of Brawley, CA
map1.22021/05/13 23:46:0432.939N115.559W9.37 5 km ( 3 mi) SSW of Brawley, CA
map0.82021/05/13 23:35:0336.028N117.819W1.78 12 km ( 7 mi) E of Coso Junction, CA
map1.02021/05/13 23:32:2338.836N122.764W0.89 4 km ( 2 mi) WNW of Cobb, CA
map1.32021/05/13 23:18:3832.616N115.752W7.4 16 km (10 mi) WNW of Progreso, B.C., MX
map0.42021/05/13 23:02:1235.914N117.672W9.26 21 km (13 mi) E of Little Lake, CA
map0.12021/05/13 23:00:0137.563N118.785W5.26 19 km (12 mi) ESE of Mammoth Lakes, CA
map0.62021/05/13 22:47:5335.601N117.474W7.52 18 km (11 mi) E of Ridgecrest, CA
map1.52021/05/13 22:39:5233.197N116.364W11.56 7 km ( 4 mi) S of Borrego Springs, CA
map0.72021/05/13 22:36:1737.481N118.808W8.06 23 km (14 mi) SE of Mammoth Lakes, CA
map0.42021/05/13 22:24:5833.474N116.522W4.59 17 km (10 mi) ESE of Anza, CA
map0.62021/05/13 22:21:3037.489N118.816W7.84 22 km (14 mi) SE of Mammoth Lakes, CA
map0.62021/05/13 22:10:3038.786N122.766W1.69 1 km ( 1 mi) NW of The Geysers, CA
map2.02021/05/13 22:05:4440.733N122.516W15.34 14 km ( 8 mi) WNW of Central Valley (historical), CA
map0.92021/05/13 22:02:5938.834N122.805W1.9 7 km ( 4 mi) W of Cobb, CA
map0.12021/05/13 21:48:3938.758N122.731W1.48 3 km ( 2 mi) SE of The Geysers, CA
map1.22021/05/13 21:47:1138.159N117.906W8.4 60 km (37 mi) W of Tonopah, NV
map0.42021/05/13 21:46:1235.898N117.703W7.86 19 km (12 mi) ESE of Little Lake, CA
map1.12021/05/13 21:43:3338.160N117.995W0.5 68 km (42 mi) W of Tonopah, NV
map-0.12021/05/13 21:27:0037.636N118.979W4.14 0 km ( 0 mi) SSW of Mammoth Lakes, CA
map0.82021/05/13 21:24:2033.354N116.266W11.27 15 km ( 9 mi) NE of Borrego Springs, CA
map0.82021/05/13 21:24:1033.354N116.266W10.83 15 km ( 9 mi) NE of Borrego Springs, CA
map1.02021/05/13 21:13:5239.465N120.312W12.5 19 km (12 mi) NW of Truckee, CA
map0.82021/05/13 20:46:4038.816N122.819W2.58 7 km ( 4 mi) NW of The Geysers, CA
map1.92021/05/13 20:41:3439.344N122.835W6.81 21 km (13 mi) NNE of Upper Lake, CA
map0.32021/05/13 20:35:5033.558N116.621W9.38 5 km ( 3 mi) E of Anza, CA
map0.62021/05/13 20:33:4636.605N117.993W3.81 7 km ( 5 mi) ENE of Lone Pine, CA
map0.42021/05/13 20:33:4235.863N117.683W6.82 22 km (14 mi) ESE of Little Lake, CA
map1.52021/05/13 20:30:5738.193N117.865W5.9 57 km (36 mi) WNW of Tonopah, NV
map2.12021/05/13 19:33:5334.010N116.853W11.65 10 km ( 6 mi) NNE of Banning, CA
map0.82021/05/13 19:30:5938.818N122.798W2.78 6 km ( 4 mi) NW of The Geysers, CA
map1.62021/05/13 19:11:1437.469N118.792W8.45 25 km (15 mi) SE of Mammoth Lakes, CA
map1.72021/05/13 19:09:5737.471N118.794W8.22 25 km (15 mi) SE of Mammoth Lakes, CA
map1.32021/05/13 19:08:5136.039N120.593W3.8 21 km (13 mi) NW of Parkfield, CA
map1.32021/05/13 19:08:3937.564N118.560W10.12 24 km (15 mi) NNW of Dixon Lane-Meadow Creek, CA
map0.22021/05/13 18:55:5738.797N122.757W1.88 2 km ( 1 mi) N of The Geysers, CA
map2.82021/05/13 18:53:1540.646N124.833W23.73 49 km (30 mi) W of Ferndale, CA
map1.02021/05/13 18:34:4238.233N117.803W5.9 53 km (33 mi) WNW of Tonopah, NV
map1.52021/05/13 18:29:2637.151N121.532W7.54 10 km ( 6 mi) NE of San Martin, CA
map0.92021/05/13 18:21:5538.179N117.786W11.3 50 km (31 mi) WNW of Tonopah, NV
map1.52021/05/13 17:54:1635.777N117.594W6.92 17 km (11 mi) W of Searles Valley, CA
map0.32021/05/13 17:41:3138.826N122.762W2.07 3 km ( 2 mi) W of Cobb, CA
map1.02021/05/13 17:16:3637.904N118.564W10.5 47 km (29 mi) NE of Mammoth Lakes, CA
map0.52021/05/13 17:04:3035.824N117.665W8.47 23 km (14 mi) N of Ridgecrest, CA
map1.12021/05/13 16:58:5435.917N117.735W9.56 16 km (10 mi) E of Little Lake, CA
map1.62021/05/13 16:40:4435.775N117.591W7.37 17 km (11 mi) W of Searles Valley, CA
map1.12021/05/13 16:33:2633.870N116.209W8.87 17 km (10 mi) N of Indio, CA
map0.82021/05/13 15:47:2434.058N117.243W7.3 2 km ( 1 mi) ENE of Loma Linda, CA
map1.22021/05/13 15:40:4437.556N118.806W7.5 18 km (11 mi) ESE of Mammoth Lakes, CA
map0.82021/05/13 15:40:2738.814N122.816W2.8 7 km ( 4 mi) NW of The Geysers, CA
map0.92021/05/13 15:28:5038.820N122.826W2.9 8 km ( 5 mi) NW of The Geysers, CA
map1.92021/05/13 15:25:2938.817N122.822W2.29 7 km ( 4 mi) NW of The Geysers, CA
map1.82021/05/13 15:08:2337.904N118.551W4.11 48 km (30 mi) NE of Mammoth Lakes, CA
map0.12021/05/13 14:48:3238.816N122.823W2.35 7 km ( 4 mi) NW of The Geysers, CA
map1.32021/05/13 14:46:0433.044N115.577W8.16 4 km ( 3 mi) E of Westmorland, CA
map1.02021/05/13 14:32:0736.514N121.147W4.57 19 km (12 mi) ENE of Soledad, CA
map0.52021/05/13 14:29:4738.805N122.772W2.6 3 km ( 2 mi) NNW of The Geysers, CA
map1.92021/05/13 14:28:0233.059N115.004W-0.25 0 km ( 0 mi) W of Quarry at RUN (Probable quarry explosion)
map1.32021/05/13 14:26:3238.834N122.761W0.53 4 km ( 2 mi) WNW of Cobb, CA
map0.32021/05/13 14:21:4438.803N122.787W3.02 4 km ( 2 mi) NW of The Geysers, CA
map0.42021/05/13 14:18:1438.840N122.823W2.06 9 km ( 5 mi) WNW of Cobb, CA
map0.92021/05/13 14:08:3534.002N116.815W13.41 10 km ( 6 mi) NNW of Cabazon, CA
map1.12021/05/13 13:43:4338.150N117.978W7.9 66 km (41 mi) W of Tonopah, NV
map1.12021/05/13 13:37:0335.615N117.444W6.72 17 km (11 mi) SSW of Searles Valley, CA
map0.42021/05/13 13:30:1938.836N122.810W2.21 8 km ( 5 mi) WNW of Cobb, CA
map0.12021/05/13 13:18:3135.696N117.595W6.48 11 km ( 7 mi) NE of Ridgecrest, CA
map1.22021/05/13 13:09:5237.684N119.433W1.7 14 km ( 9 mi) ESE of Yosemite Valley, CA
map1.12021/05/13 12:52:3634.627N117.108W-1.44 1 km ( 1 mi) ESE of Quarry at VICTORVILLE (Probable quarry explosion)
map1.02021/05/13 12:40:2932.755N115.822W8.43 16 km (10 mi) E of Ocotillo, CA
map-0.12021/05/13 12:20:0035.799N117.557W6.5 14 km ( 9 mi) WNW of Searles Valley, CA
map1.22021/05/13 12:11:3835.750N118.500W7.25 6 km ( 4 mi) NW of Wofford Heights, CA
map1.92021/05/13 12:01:1236.636N121.245W6.19 22 km (14 mi) SSE of Ridgemark, CA
map1.42021/05/13 11:53:5034.995N118.182W-0.84 2 km ( 1 mi) SW of Quarry at TPO-DBM (Probable quarry explosion)
map1.12021/05/13 11:53:2236.667N121.298W0.26 17 km (11 mi) SSE of Ridgemark, CA
map1.32021/05/13 11:30:0636.078N117.876W3.03 7 km ( 5 mi) ENE of Coso Junction, CA
map1.32021/05/13 11:25:0533.711N117.338W-0.5 21 km (13 mi) NE of Quarry at ELS (Probable quarry explosion)
map0.92021/05/13 11:09:5438.809N122.823W2.47 7 km ( 4 mi) WNW of The Geysers, CA
map1.52021/05/13 10:58:3634.459N117.963W8.86 7 km ( 4 mi) SSE of Littlerock, CA
map1.02021/05/13 10:37:4135.980N117.320W4.79 25 km (15 mi) NNE of Trona, CA
map0.42021/05/13 10:37:1638.823N122.844W1.93 9 km ( 6 mi) NW of The Geysers, CA
map0.72021/05/13 10:10:2634.156N117.418W10.63 7 km ( 4 mi) W of Muscoy, CA
map0.72021/05/13 10:09:3138.833N122.783W1.58 5 km ( 3 mi) WNW of Cobb, CA
map2.12021/05/13 09:26:3938.813N122.826W2.13 7 km ( 4 mi) NW of The Geysers, CA
map1.02021/05/13 09:17:1633.318N116.351W10.19 7 km ( 4 mi) NNE of Borrego Springs, CA
map1.12021/05/13 09:10:3038.404N118.899W4.2 28 km (17 mi) WSW of Hawthorne, NV
map1.32021/05/13 09:04:4534.337N116.850W-1.41 1 km ( 1 mi) S of Quarry at CUSHENBURY (Probable quarry explosion)
map0.42021/05/13 08:58:3338.844N122.879W2.14 13 km ( 8 mi) ENE of Cloverdale, CA
map1.02021/05/13 08:51:4839.412N120.120W5.1 11 km ( 7 mi) NNE of Truckee, CA
map1.02021/05/13 08:37:4338.633N122.376W10.51 9 km ( 6 mi) NE of Angwin, CA
map1.02021/05/13 08:37:0038.806N122.822W2.13 7 km ( 4 mi) WNW of The Geysers, CA
map0.92021/05/13 08:15:1738.813N122.844W10.56 9 km ( 5 mi) WNW of The Geysers, CA
map1.52021/05/13 07:52:2538.843N122.877W2.46 13 km ( 8 mi) NW of The Geysers, CA
map1.12021/05/13 07:28:3039.440N118.103W11.4 58 km (36 mi) E of Fallon, NV
map1.12021/05/13 07:26:4338.174N117.880W9.0 58 km (36 mi) WNW of Tonopah, NV
map1.52021/05/13 07:26:1535.862N117.666W6.56 23 km (14 mi) ESE of Little Lake, CA
map0.72021/05/13 07:18:3938.782N122.734W1.8 2 km ( 1 mi) ENE of The Geysers, CA
map0.72021/05/13 06:58:3237.455N118.712W5.74 25 km (16 mi) WNW of West Bishop, CA
map0.52021/05/13 06:50:2738.808N122.754W0.25 3 km ( 2 mi) WSW of Cobb, CA
map0.92021/05/13 06:50:2235.678N117.521W12.22 14 km ( 9 mi) SW of Searles Valley, CA
map1.32021/05/13 06:47:0735.662N117.469W8.34 13 km ( 8 mi) SSW of Searles Valley, CA
map0.42021/05/13 06:40:2735.717N117.495W1.7 10 km ( 6 mi) SW of Searles Valley, CA
map1.72021/05/13 06:37:2732.751N115.802W3.66 18 km (11 mi) E of Ocotillo, CA
map1.22021/05/13 06:34:3038.811N122.816W2.87 6 km ( 4 mi) NW of The Geysers, CA
map0.72021/05/13 06:10:1936.918N116.142W5.5 54 km (34 mi) E of Beatty, NV
map1.02021/05/13 06:01:2037.929N118.591W5.8 47 km (29 mi) NE of Mammoth Lakes, CA
map2.02021/05/13 05:33:5734.157N117.432W11.04 7 km ( 4 mi) NNE of Fontana, CA
map1.82021/05/13 05:33:4734.153N117.434W11.41 7 km ( 4 mi) NNE of Fontana, CA
map1.22021/05/13 05:15:0838.787N122.764W1.72 1 km ( 1 mi) NNW of The Geysers, CA
map0.52021/05/13 05:10:3732.748N115.825W7.47 16 km (10 mi) E of Ocotillo, CA
map0.92021/05/13 05:05:5937.608N121.759W8.18 8 km ( 5 mi) S of Livermore, CA
map1.12021/05/13 05:04:0438.171N117.884W8.3 58 km (36 mi) W of Tonopah, NV
map0.72021/05/13 05:03:1333.265N116.263W12.7 10 km ( 6 mi) E of Borrego Springs, CA
map0.42021/05/13 05:00:1238.782N122.781W3.73 2 km ( 1 mi) WNW of The Geysers, CA
map0.82021/05/13 04:58:2933.228N116.089W9.31 10 km ( 6 mi) NNE of Ocotillo Wells, CA
map0.72021/05/13 04:55:1337.476N118.806W7.1 23 km (15 mi) SE of Mammoth Lakes, CA
map0.82021/05/13 04:41:4538.170N117.980W2.5 66 km (41 mi) W of Tonopah, NV
map1.42021/05/13 04:31:2932.748N115.822W9.98 16 km (10 mi) E of Ocotillo, CA
map1.32021/05/13 04:31:2533.047N115.575W8.52 4 km ( 3 mi) ENE of Westmorland, CA
map0.82021/05/13 04:23:2936.075N117.846W1.72 10 km ( 6 mi) ENE of Coso Junction, CA
map0.72021/05/13 04:18:2136.073N117.868W3.79 8 km ( 5 mi) ENE of Coso Junction, CA
map0.62021/05/13 04:17:1233.254N116.278W10.71 9 km ( 6 mi) E of Borrego Springs, CA
map1.22021/05/13 04:08:1940.382N121.293W9 10 km ( 6 mi) NNW of Chester, CA
map0.82021/05/13 04:08:1238.820N122.799W2.96 6 km ( 4 mi) NW of The Geysers, CA
map0.92021/05/13 04:01:4838.825N122.853W2.03 10 km ( 6 mi) WNW of The Geysers, CA
map0.52021/05/13 03:42:5938.819N122.799W3.58 6 km ( 4 mi) NW of The Geysers, CA
map0.62021/05/13 03:24:3633.459N116.582W11.55 14 km ( 8 mi) SE of Anza, CA
map0.92021/05/13 03:02:3438.838N122.810W1.82 8 km ( 5 mi) WNW of Cobb, CA
map1.32021/05/13 03:02:1638.838N122.810W2.03 8 km ( 5 mi) WNW of Cobb, CA
map1.22021/05/13 03:01:3037.900N118.553W7.59 48 km (30 mi) NE of Mammoth Lakes, CA
map0.22021/05/13 03:00:4438.836N122.786W1.85 6 km ( 4 mi) WNW of Cobb, CA
map0.52021/05/13 02:44:1233.514N116.489W15.37 18 km (11 mi) ESE of Anza, CA
map0.82021/05/13 02:41:1435.729N117.551W11.03 14 km ( 9 mi) WSW of Searles Valley, CA
map1.32021/05/13 02:40:1137.910N118.568W1.3 47 km (29 mi) NE of Mammoth Lakes, CA
map1.52021/05/13 02:37:1738.140N117.995W8.7 67 km (42 mi) W of Tonopah, NV
map0.92021/05/13 02:30:4738.822N122.765W2.13 4 km ( 2 mi) W of Cobb, CA
map0.22021/05/13 02:28:3333.586N116.808W7.27 13 km ( 8 mi) WNW of Anza, CA
map0.32021/05/13 02:12:2433.583N116.802W5.38 12 km ( 8 mi) WNW of Anza, CA
map0.52021/05/13 01:42:4038.823N122.766W2.1 4 km ( 2 mi) W of Cobb, CA
map1.32021/05/13 01:41:4035.800N119.933W3.04 23 km (14 mi) S of Kettleman City, CA
map0.62021/05/13 01:35:2733.872N116.972W15.42 6 km ( 4 mi) S of Beaumont, CA
map1.62021/05/13 01:29:3035.785N119.950W-0.17 25 km (15 mi) S of Kettleman City, CA
map0.82021/05/13 01:00:3538.819N122.802W3.33 6 km ( 4 mi) NW of The Geysers, CA
map0.52021/05/13 00:36:5033.667N116.758W13.6 9 km ( 6 mi) SSW of Idyllwild, CA
map0.52021/05/13 00:25:4237.478N118.819W4.86 23 km (14 mi) SE of Mammoth Lakes, CA
map1.02021/05/13 00:18:4036.081N117.869W3.36 8 km ( 5 mi) ENE of Coso Junction, CA
map1.02021/05/13 00:17:5136.040N120.594W3.56 21 km (13 mi) NW of Parkfield, CA
map0.52021/05/13 00:17:2535.881N117.703W4.09 19 km (12 mi) ESE of Little Lake, CA
map0.42021/05/12 23:48:0638.826N122.822W1.04 8 km ( 5 mi) NW of The Geysers, CA
map0.92021/05/12 23:48:0032.749N115.825W7.92 16 km (10 mi) E of Ocotillo, CA
map1.22021/05/12 23:38:4638.137N118.020W8.9 68 km (42 mi) SE of Hawthorne, NV
map0.42021/05/12 23:27:4033.496N116.529W9.48 15 km ( 9 mi) ESE of Anza, CA
map-0.22021/05/12 23:27:3233.598N116.632W12.4 6 km ( 4 mi) NE of Anza, CA
map1.12021/05/12 23:15:3033.493N116.536W7.91 14 km ( 9 mi) ESE of Anza, CA
map1.42021/05/12 23:02:3932.936N116.220W9.84 24 km (15 mi) SSW of Ocotillo Wells, CA
map0.52021/05/12 22:58:3935.900N117.711W8.41 18 km (11 mi) ESE of Little Lake, CA
map0.42021/05/12 22:47:2135.779N117.560W6.98 14 km ( 9 mi) W of Searles Valley, CA
map0.72021/05/12 22:45:0733.496N116.529W6.68 15 km ( 9 mi) ESE of Anza, CA
map0.92021/05/12 22:38:5033.379N116.399W9.99 14 km ( 9 mi) N of Borrego Springs, CA
map1.12021/05/12 22:25:0337.919N118.580W1.2 47 km (29 mi) NE of Mammoth Lakes, CA
map1.32021/05/12 22:13:0138.234N122.174W10.64 2 km ( 1 mi) SSW of Green Valley, CA
map1.32021/05/12 22:00:1138.819N122.823W2.37 7 km ( 5 mi) NW of The Geysers, CA
map0.72021/05/12 21:58:4032.919N116.255W9.65 28 km (17 mi) SSW of Ocotillo Wells, CA
map0.72021/05/12 21:43:2738.813N122.820W2.58 7 km ( 4 mi) NW of The Geysers, CA
map0.62021/05/12 21:38:1837.477N118.803W8 24 km (15 mi) SE of Mammoth Lakes, CA
map0.72021/05/12 21:37:0133.699N116.801W14.91 9 km ( 6 mi) WSW of Idyllwild, CA
map0.92021/05/12 21:36:5033.587N116.807W6.63 13 km ( 8 mi) WNW of Anza, CA
map0.52021/05/12 21:36:4837.476N118.799W9.02 24 km (15 mi) SE of Mammoth Lakes, CA
map0.42021/05/12 21:30:4038.828N122.810W1.47 7 km ( 5 mi) NW of The Geysers, CA
map0.92021/05/12 21:26:4234.216N117.610W8.97 11 km ( 7 mi) NNW of Rancho Cucamonga, CA
map0.22021/05/12 21:13:3933.593N116.803W6.67 13 km ( 8 mi) WNW of Anza, CA
map2.42021/05/12 21:03:3332.828N115.706W11.91 13 km ( 8 mi) W of Imperial, CA
map1.62021/05/12 20:55:0534.167N117.277W6.93 4 km ( 3 mi) NNE of San Bernardino, CA
map1.62021/05/12 20:17:5533.989N116.652W17.57 9 km ( 6 mi) SW of Morongo Valley, CA
map1.02021/05/12 20:16:4037.474N118.802W7.16 24 km (15 mi) SE of Mammoth Lakes, CA
map0.82021/05/12 20:16:2737.478N118.810W7.42 23 km (14 mi) SE of Mammoth Lakes, CA
map0.12021/05/12 20:06:5938.794N122.759W1.76 2 km ( 1 mi) N of The Geysers, CA
map0.72021/05/12 19:57:3037.477N118.826W3.65 22 km (14 mi) SE of Mammoth Lakes, CA
map0.82021/05/12 19:55:5433.842N117.019W13.14 8 km ( 5 mi) NW of San Jacinto, CA
map1.42021/05/12 19:55:1738.780N122.746W-0.14 1 km ( 1 mi) ENE of The Geysers, CA
map1.62021/05/12 19:53:1340.481N120.972W1.96 28 km (18 mi) WNW of Susanville, CA
map1.02021/05/12 19:42:4834.026N118.489W7.55 1 km ( 0 mi) NNE of Santa Monica, CA
map0.82021/05/12 19:27:2837.606N118.913W3.69 7 km ( 4 mi) ESE of Mammoth Lakes, CA
map0.92021/05/12 19:20:2838.837N122.784W1.42 5 km ( 3 mi) WNW of Cobb, CA
map0.22021/05/12 19:18:5635.623N117.442W9.69 16 km (10 mi) SSW of Searles Valley, CA
map0.72021/05/12 19:12:3936.129N117.841W4.79 13 km ( 8 mi) NE of Coso Junction, CA
map1.42021/05/12 19:09:3637.918N118.575W1.4 47 km (29 mi) NE of Mammoth Lakes, CA
map-0.12021/05/12 19:00:5138.788N122.744W1.67 2 km ( 1 mi) NE of The Geysers, CA
map1.12021/05/12 18:56:5337.471N118.794W7.85 25 km (15 mi) SE of Mammoth Lakes, CA
map0.52021/05/12 18:32:0638.804N122.817W3.06 6 km ( 4 mi) WNW of The Geysers, CA
map0.82021/05/12 18:30:1537.477N121.711W9.32 14 km ( 9 mi) NE of East Foothills, CA
map1.42021/05/12 18:23:1038.150N117.917W8.7 61 km (38 mi) W of Tonopah, NV
map2.42021/05/12 18:16:4632.745N115.823W10.47 16 km (10 mi) E of Ocotillo, CA
map1.02021/05/12 18:14:1336.140N118.079W2.59 16 km (10 mi) NW of Coso Junction, CA
map1.02021/05/12 18:04:0138.166N117.899W9.8 59 km (37 mi) W of Tonopah, NV
map1.52021/05/12 17:59:2038.172N117.971W2.8 66 km (41 mi) W of Tonopah, NV
map0.92021/05/12 17:56:2936.139N117.920W3.82 11 km ( 7 mi) NNE of Coso Junction, CA
map0.72021/05/12 17:29:2736.132N117.846W4.89 13 km ( 8 mi) NE of Coso Junction, CA
map2.22021/05/12 17:27:2637.906N118.556W7.26 48 km (30 mi) NE of Mammoth Lakes, CA
map1.02021/05/12 17:24:1933.672N116.756W16.63 8 km ( 5 mi) SSW of Idyllwild, CA
map1.12021/05/12 17:14:3632.758N115.818W9.91 17 km (10 mi) E of Ocotillo, CA
map0.42021/05/12 16:45:5638.819N122.798W3.23 6 km ( 4 mi) NW of The Geysers, CA
map0.82021/05/12 16:45:3938.822N122.804W2.91 6 km ( 4 mi) NW of The Geysers, CA
map0.42021/05/12 16:41:2638.824N122.804W2.71 7 km ( 4 mi) NW of The Geysers, CA
map1.92021/05/12 16:38:1338.820N122.803W2.83 6 km ( 4 mi) NW of The Geysers, CA
map1.12021/05/12 16:29:5233.950N116.928W18.28 5 km ( 3 mi) ENE of Beaumont, CA
map1.42021/05/12 16:25:2733.990N118.789W13.75 3 km ( 2 mi) SE of Malibu, CA
map1.82021/05/12 16:21:2235.043N117.664W-0.79 2 km ( 1 mi) NE of Quarry at BORON (Probable quarry explosion)
map1.32021/05/12 16:20:1240.249N121.144W7.3 10 km ( 6 mi) SE of Chester, CA
map1.52021/05/12 16:12:2932.937N116.221W9.68 24 km (15 mi) SSW of Ocotillo Wells, CA
map0.42021/05/12 15:55:2438.788N122.761W2.73 1 km ( 1 mi) NNW of The Geysers, CA
map1.42021/05/12 15:54:2938.788N122.763W1.68 1 km ( 1 mi) NNW of The Geysers, CA
map-0.12021/05/12 15:51:5435.713N117.446W0.63 7 km ( 4 mi) SSW of Searles Valley, CA
map2.42021/05/12 15:20:4035.950N117.705W2.83 18 km (11 mi) E of Little Lake, CA
map1.62021/05/12 15:05:1438.161N117.995W0.2 68 km (42 mi) W of Tonopah, NV
map0.92021/05/12 14:25:5038.827N122.853W1.7 10 km ( 6 mi) WNW of The Geysers, CA
map-0.02021/05/12 14:18:0835.958N117.654W2.7 23 km (14 mi) E of Little Lake, CA
map0.42021/05/12 14:16:2338.819N122.799W3.53 6 km ( 4 mi) NW of The Geysers, CA
map0.92021/05/12 14:08:1438.819N122.798W3.14 6 km ( 4 mi) NW of The Geysers, CA
map0.82021/05/12 13:57:5235.952N117.701W4.17 19 km (12 mi) E of Little Lake, CA
map1.42021/05/12 13:53:5438.819N122.798W3.5 6 km ( 4 mi) NW of The Geysers, CA
map0.32021/05/12 13:46:4838.781N122.765W1.49 1 km ( 0 mi) WNW of The Geysers, CA
map1.02021/05/12 13:38:0538.818N122.799W3.39 6 km ( 4 mi) NW of The Geysers, CA
map1.12021/05/12 13:30:3233.865N117.503W-0.53 2 km ( 1 mi) N of Quarry at CORONA (Probable quarry explosion)
map1.72021/05/12 13:29:1139.346N123.226W5.58 9 km ( 6 mi) NNW of Redwood Valley, CA
map1.22021/05/12 13:07:1534.043N117.255W15.55 1 km ( 0 mi) SE of Loma Linda, CA
map0.72021/05/12 13:00:4733.683N117.099W-0.54 6 km ( 4 mi) WNW of Quarry at EASTSIDE RES. (Probable quarry explosion)
map1.42021/05/12 12:29:1938.185N117.883W8.2 59 km (36 mi) WNW of Tonopah, NV
map1.52021/05/12 12:28:1634.025N117.229W14.94 4 km ( 2 mi) SE of Loma Linda, CA
map0.72021/05/12 12:20:0035.952N117.702W4.4 18 km (11 mi) E of Little Lake, CA
map1.02021/05/12 12:19:2435.953N117.704W4.39 18 km (11 mi) E of Little Lake, CA
map0.82021/05/12 12:06:5137.608N118.912W3.5 7 km ( 4 mi) ESE of Mammoth Lakes, CA
map0.92021/05/12 11:59:0034.997N118.182W-0.8 2 km ( 1 mi) SW of Quarry at TPO-DBM (Probable quarry explosion)
map0.92021/05/12 11:51:5633.957N116.834W20.57 5 km ( 3 mi) NE of Banning, CA
map2.12021/05/12 11:32:1940.490N124.289W18.48 10 km ( 6 mi) SSW of Ferndale, CA
map0.52021/05/12 11:22:1038.768N122.710W1.64 4 km ( 3 mi) ESE of The Geysers, CA
map1.82021/05/12 11:17:2040.689N120.810W13.32 33 km (21 mi) NNW of Susanville, CA
map0.32021/05/12 11:09:4235.598N117.507W10.53 15 km (10 mi) E of Ridgecrest, CA
map1.02021/05/12 11:02:2536.752N121.588W3.71 1 km ( 1 mi) NE of Quarry near Natividad, CA (Probable quarry explosion)
map1.32021/05/12 11:01:2835.055N118.345W-1.01 2 km ( 1 mi) WNW of Quarry at MOJAVE (Probable quarry explosion)
map2.92021/05/12 10:44:4540.906N122.371W20.04 25 km (16 mi) N of Central Valley (historical), CA
map1.62021/05/12 10:42:4738.188N117.871W5.8 58 km (36 mi) WNW of Tonopah, NV
map1.82021/05/12 10:40:1734.041N116.988W11.75 5 km ( 3 mi) E of Yucaipa, CA
map1.32021/05/12 10:40:1433.256N116.400W4.46 2 km ( 1 mi) W of Borrego Springs, CA
map1.02021/05/12 10:39:0836.120N117.835W4.13 13 km ( 8 mi) NE of Coso Junction, CA
map0.92021/05/12 10:20:2638.819N122.766W2.07 4 km ( 2 mi) W of Cobb, CA
map0.22021/05/12 10:19:2237.606N118.912W3.56 7 km ( 4 mi) ESE of Mammoth Lakes, CA
map0.92021/05/12 09:46:2735.629N117.484W4.98 17 km (11 mi) SSW of Searles Valley, CA
map0.92021/05/12 09:42:2838.804N122.788W-0.97 4 km ( 2 mi) NW of The Geysers, CA
map1.12021/05/12 09:02:3936.141N118.075W2.41 16 km (10 mi) NW of Coso Junction, CA
map2.12021/05/12 08:52:5536.141N118.069W2.51 15 km ( 9 mi) NW of Coso Junction, CA
map1.02021/05/12 08:38:3438.146N117.947W12.3 63 km (39 mi) W of Tonopah, NV
map0.52021/05/12 08:11:1238.771N122.711W1.68 4 km ( 2 mi) E of The Geysers, CA
map1.32021/05/12 07:57:5438.808N122.754W0.03 3 km ( 2 mi) WSW of Cobb, CA
map0.72021/05/12 07:35:0337.904N122.211W7.66 4 km ( 3 mi) NW of Orinda, CA
map1.32021/05/12 07:24:1732.750N115.809W5.47 17 km (11 mi) E of Ocotillo, CA
map1.72021/05/12 07:12:3438.787N122.742W1.74 2 km ( 1 mi) NE of The Geysers, CA
map1.02021/05/12 07:11:5535.716N117.548W7.54 14 km ( 9 mi) WSW of Searles Valley, CA
map1.52021/05/12 06:10:5038.180N117.889W11.0 59 km (37 mi) WNW of Tonopah, NV
map0.92021/05/12 05:30:3337.840N122.037W7.62 1 km ( 1 mi) SSW of Alamo, CA
map0.52021/05/12 05:30:2238.820N122.808W3.28 7 km ( 4 mi) NW of The Geysers, CA
map0.12021/05/12 05:15:1038.776N122.744W1.57 1 km ( 1 mi) E of The Geysers, CA
map0.42021/05/12 05:10:4833.822N117.639W6.55 9 km ( 5 mi) SW of Corona, CA
map1.42021/05/12 05:07:1537.414N118.785W17.12 30 km (18 mi) WNW of West Bishop, CA
map0.52021/05/12 04:51:5935.866N117.692W7.22 21 km (13 mi) ESE of Little Lake, CA
map0.52021/05/12 04:43:3733.508N116.557W12.94 12 km ( 7 mi) ESE of Anza, CA
map2.12021/05/12 04:41:3936.711N121.369W5 11 km ( 7 mi) S of Ridgemark, CA
map1.12021/05/12 04:28:2739.376N120.153W9.9 6 km ( 4 mi) NNE of Truckee, CA
map0.82021/05/12 04:20:5932.747N115.827W7.46 16 km (10 mi) E of Ocotillo, CA
map1.32021/05/12 04:18:4938.196N119.411W11.0 53 km (33 mi) NNE of Yosemite Valley, CA
map0.82021/05/12 04:04:4035.682N117.500W2.31 13 km ( 8 mi) SW of Searles Valley, CA
map0.82021/05/12 04:01:5533.587N116.808W5.47 13 km ( 8 mi) WNW of Anza, CA
map0.82021/05/12 04:00:2033.678N116.753W16.4 8 km ( 5 mi) SSW of Idyllwild, CA
map0.42021/05/12 03:41:5533.596N116.803W5.8 13 km ( 8 mi) WNW of Anza, CA
map1.22021/05/12 03:41:4135.498N118.390W6.17 14 km ( 8 mi) SE of Bodfish, CA
map1.82021/05/12 03:39:0636.145N118.070W2.33 16 km (10 mi) NW of Coso Junction, CA
map1.02021/05/12 03:35:0138.838N122.823W1.74 9 km ( 6 mi) W of Cobb, CA
map0.52021/05/12 03:31:4838.815N122.823W2.35 7 km ( 4 mi) NW of The Geysers, CA
map0.72021/05/12 03:23:5835.875N117.699W5.8 20 km (12 mi) ESE of Little Lake, CA
map0.72021/05/12 03:19:1938.817N122.761W2.05 3 km ( 2 mi) W of Cobb, CA
map2.82021/05/12 03:14:2635.504N118.384W6.92 13 km ( 8 mi) SE of Bodfish, CA
map0.62021/05/12 03:06:1335.876N117.695W6.58 20 km (13 mi) ESE of Little Lake, CA
map1.82021/05/12 02:55:2640.243N124.186W10.58 29 km (18 mi) SSW of Rio Dell, CA
map1.22021/05/12 02:52:3738.808N122.783W0.51 4 km ( 3 mi) NW of The Geysers, CA
map1.52021/05/12 02:50:2338.154N117.930W9.1 62 km (38 mi) W of Tonopah, NV
map1.42021/05/12 02:38:3438.142N117.977W5.7 66 km (41 mi) W of Tonopah, NV
map1.22021/05/12 02:38:2738.833N122.818W1.85 8 km ( 5 mi) NW of The Geysers, CA
map1.62021/05/12 02:37:2538.151N117.949W11.7 64 km (39 mi) W of Tonopah, NV
map1.92021/05/12 02:32:5332.748N115.828W10.61 16 km (10 mi) E of Ocotillo, CA
map1.32021/05/12 02:16:2635.976N117.466W3.49 24 km (15 mi) NNW of Searles Valley, CA
map0.42021/05/12 01:39:1638.847N122.818W1.03 9 km ( 5 mi) WNW of Cobb, CA
map0.22021/05/12 01:26:1133.592N116.683W3.84 4 km ( 3 mi) NNW of Anza, CA
map0.62021/05/12 01:16:5735.612N117.454W7.56 18 km (11 mi) SSW of Searles Valley, CA
map2.12021/05/12 01:07:2734.619N118.644W10.7 15 km ( 9 mi) N of Castaic, CA
map0.62021/05/12 01:06:2334.011N116.745W14.25 11 km ( 7 mi) NNE of Cabazon, CA
map1.92021/05/12 01:04:4239.919N123.505W8.68 26 km (16 mi) N of Laytonville, CA
map2.32021/05/12 00:53:0839.922N123.505W8.08 26 km (16 mi) N of Laytonville, CA
map0.52021/05/12 00:34:2033.292N116.270W6.71 11 km ( 7 mi) ENE of Borrego Springs, CA
map0.52021/05/12 00:18:1033.486N116.463W14.81 21 km (13 mi) ESE of Anza, CA
map2.72021/05/12 00:11:3940.392N124.410W17.22 24 km (15 mi) SSW of Ferndale, CA
map0.52021/05/11 23:39:0838.806N122.823W2.64 7 km ( 4 mi) WNW of The Geysers, CA
map0.72021/05/11 23:33:3233.673N116.750W13.01 8 km ( 5 mi) SSW of Idyllwild, CA
map0.82021/05/11 23:26:1138.814N122.796W1.52 5 km ( 3 mi) NW of The Geysers, CA
map0.82021/05/11 22:40:1538.747N122.717W1.08 5 km ( 3 mi) SE of The Geysers, CA
map1.52021/05/11 22:30:0334.007N117.206W15.52 6 km ( 4 mi) SSW of Redlands, CA
map1.22021/05/11 22:26:2238.165N117.906W8.6 60 km (37 mi) W of Tonopah, NV
map1.02021/05/11 22:25:5733.875N117.695W9.31 11 km ( 7 mi) E of Yorba Linda, CA
map1.02021/05/11 22:09:0635.966N117.475W3.47 23 km (14 mi) NNW of Searles Valley, CA
map1.02021/05/11 22:07:2037.434N121.770W10.18 7 km ( 4 mi) NE of East Foothills, CA
map1.42021/05/11 21:55:3438.115N118.155W1.9 61 km (38 mi) SE of Hawthorne, NV
map1.12021/05/11 21:27:2638.151N117.950W11.7 64 km (40 mi) W of Tonopah, NV
map0.52021/05/11 21:25:5438.829N122.814W2.15 8 km ( 5 mi) NW of The Geysers, CA
map0.82021/05/11 21:22:2238.773N122.876W3.71 10 km ( 6 mi) W of The Geysers, CA
map0.82021/05/11 21:19:2833.061N116.425W14.73 17 km (10 mi) E of Julian, CA
map2.12021/05/11 21:18:2738.151N117.943W11.9 63 km (39 mi) W of Tonopah, NV
map0.92021/05/11 21:07:4037.542N118.827W5.31 17 km (11 mi) SE of Mammoth Lakes, CA
map1.62021/05/11 20:59:1837.899N118.552W8.71 48 km (30 mi) NE of Mammoth Lakes, CA
map0.72021/05/11 20:51:4138.819N122.797W3.01 6 km ( 4 mi) NW of The Geysers, CA
map0.52021/05/11 20:48:0935.867N117.662W7.45 23 km (15 mi) ESE of Little Lake, CA
map1.72021/05/11 20:16:2034.242N116.973W10.03 6 km ( 4 mi) W of Big Bear Lake, CA
map0.82021/05/11 19:49:1236.161N117.820W-0.32 17 km (11 mi) NE of Coso Junction, CA
map0.42021/05/11 19:46:2138.819N122.764W1.86 4 km ( 2 mi) W of Cobb, CA
map1.32021/05/11 19:33:5336.666N116.272W8.5 51 km (32 mi) ESE of Beatty, NV
map1.72021/05/11 19:27:2938.140N117.895W9.3 59 km (36 mi) W of Tonopah, NV
map0.92021/05/11 19:21:5238.817N122.823W2.29 7 km ( 5 mi) NW of The Geysers, CA
map1.02021/05/11 19:15:4135.765N117.576W7.58 15 km (10 mi) W of Searles Valley, CA
map0.52021/05/11 19:12:1438.781N122.743W-0.38 1 km ( 1 mi) ENE of The Geysers, CA
map0.42021/05/11 18:44:5438.830N122.797W0.7 6 km ( 4 mi) W of Cobb, CA
map1.52021/05/11 18:34:3436.575N121.163W3.71 22 km (14 mi) NE of Soledad, CA
map0.32021/05/11 18:18:5236.745N116.192W7.4 53 km (33 mi) ESE of Beatty, NV
map0.82021/05/11 18:16:4838.791N122.806W3.1 5 km ( 3 mi) WNW of The Geysers, CA
map0.32021/05/11 18:13:4433.588N116.807W7.67 13 km ( 8 mi) WNW of Anza, CA
map0.42021/05/11 18:11:3733.590N116.809W6.81 13 km ( 8 mi) WNW of Anza, CA
map0.42021/05/11 17:56:1638.819N122.799W3.29 6 km ( 4 mi) NW of The Geysers, CA
map0.92021/05/11 17:33:2738.833N122.818W1.71 8 km ( 5 mi) NW of The Geysers, CA
map1.82021/05/11 17:32:4132.914N115.528W8.57 7 km ( 4 mi) S of Brawley, CA
map1.02021/05/11 17:15:5436.664N116.266W8.8 51 km (32 mi) ESE of Beatty, NV
map1.82021/05/11 17:10:4432.562N115.615W11.08 3 km ( 2 mi) SW of Progreso, B.C., MX
map1.92021/05/11 17:04:4235.626N117.413W8.23 16 km (10 mi) S of Trona, CA
map1.12021/05/11 16:50:1532.936N116.274W9.25 27 km (16 mi) SSW of Ocotillo Wells, CA
map0.72021/05/11 16:39:3735.711N117.506W7.78 11 km ( 7 mi) SW of Searles Valley, CA
map0.62021/05/11 16:37:1835.626N117.440W8.53 16 km (10 mi) SSW of Searles Valley, CA
map0.92021/05/11 16:36:4138.821N122.844W1.96 9 km ( 6 mi) WNW of The Geysers, CA
map1.82021/05/11 16:31:2238.169N117.987W1.2 67 km (42 mi) W of Tonopah, NV
map0.52021/05/11 16:23:5433.706N116.729W16.59 4 km ( 2 mi) SSW of Idyllwild, CA
map0.32021/05/11 16:17:3740.423N121.432W0.54 21 km (13 mi) NW of Chester, CA
map1.02021/05/11 15:52:1837.470N118.799W10.23 24 km (15 mi) SE of Mammoth Lakes, CA
map0.52021/05/11 15:36:0238.806N122.811W3.67 6 km ( 4 mi) NW of The Geysers, CA
map1.12021/05/11 15:34:2833.058N116.468W10.58 13 km ( 8 mi) E of Julian, CA
map1.12021/05/11 15:27:0337.105N121.534W-0.43 7 km ( 4 mi) ENE of San Martin, CA
map0.62021/05/11 15:25:1138.812N122.824W2.47 7 km ( 4 mi) WNW of The Geysers, CA
map0.92021/05/11 15:15:1633.171N116.373W7.11 9 km ( 6 mi) S of Borrego Springs, CA
map1.12021/05/11 15:13:5638.800N122.771W1.49 3 km ( 2 mi) NNW of The Geysers, CA
map0.62021/05/11 14:49:0136.008N117.795W1.74 13 km ( 8 mi) NE of Little Lake, CA
map0.92021/05/11 14:37:2238.814N122.824W2.2 7 km ( 4 mi) NW of The Geysers, CA
map0.72021/05/11 14:28:2838.824N122.795W2.76 6 km ( 4 mi) NNW of The Geysers, CA
map0.82021/05/11 14:28:1936.129N117.847W5.06 13 km ( 8 mi) NE of Coso Junction, CA
map0.42021/05/11 14:13:4138.818N122.824W1.72 7 km ( 5 mi) NW of The Geysers, CA
map0.32021/05/11 13:51:4436.007N117.790W0.65 13 km ( 8 mi) NE of Little Lake, CA
map1.52021/05/11 13:47:1437.152N122.023W13.03 5 km ( 3 mi) WSW of Lexington Hills, CA
map1.82021/05/11 13:33:3532.755N115.819W5.4 16 km (10 mi) E of Ocotillo, CA
map0.72021/05/11 13:22:5337.467N118.824W2.64 23 km (14 mi) SE of Mammoth Lakes, CA
map0.32021/05/11 13:05:3433.640N116.697W12.78 10 km ( 6 mi) NNW of Anza, CA
map0.42021/05/11 13:03:2338.818N122.800W3.44 6 km ( 4 mi) NW of The Geysers, CA
map0.92021/05/11 13:00:2938.822N122.853W2.36 10 km ( 6 mi) WNW of The Geysers, CA
map1.52021/05/11 12:47:5437.146N122.020W12.89 5 km ( 3 mi) WSW of Lexington Hills, CA
map1.02021/05/11 12:44:3636.126N117.841W4.6 13 km ( 8 mi) NE of Coso Junction, CA
map0.42021/05/11 12:36:5038.819N122.798W3.42 6 km ( 4 mi) NW of The Geysers, CA
map0.92021/05/11 12:31:1038.819N122.798W3.19 6 km ( 4 mi) NW of The Geysers, CA
map1.12021/05/11 12:30:5535.905N117.704W8.35 19 km (12 mi) E of Little Lake, CA
map1.42021/05/11 12:26:5639.361N123.263W2.4 10 km ( 6 mi) SE of Willits, CA
map0.92021/05/11 12:24:0938.838N122.811W1.99 8 km ( 5 mi) WNW of Cobb, CA
map1.32021/05/11 11:52:5834.991N118.190W-0.8 3 km ( 2 mi) SW of Quarry at TPO-DBM (Probable quarry explosion)
map1.42021/05/11 11:51:3837.823N122.001W5.52 0 km ( 0 mi) NNW of Danville, CA
map0.62021/05/11 11:47:3438.820N122.802W3.15 6 km ( 4 mi) NW of The Geysers, CA
map1.52021/05/11 11:28:2436.959N121.599W4.44 6 km ( 4 mi) SSW of Gilroy, CA
map1.62021/05/11 11:22:1838.152N117.892W8.4 59 km (36 mi) W of Tonopah, NV
map1.62021/05/11 11:08:2733.062N115.008W-0.25 1 km ( 0 mi) WNW of Quarry at RUN (Probable quarry explosion)
map0.32021/05/11 11:07:5238.816N122.795W1.78 5 km ( 3 mi) NW of The Geysers, CA
map0.92021/05/11 10:58:5738.825N122.819W1.33 8 km ( 5 mi) NW of The Geysers, CA
map1.22021/05/11 10:43:5538.829N122.854W1.98 10 km ( 6 mi) NW of The Geysers, CA
map1.62021/05/11 10:40:2436.222N117.930W4.4 9 km ( 6 mi) SE of Olancha, CA
map0.62021/05/11 10:12:1235.581N117.355W3.41 20 km (13 mi) S of Trona, CA
map1.32021/05/11 10:06:0132.754N115.821W10.16 16 km (10 mi) E of Ocotillo, CA
map0.92021/05/11 09:54:0838.819N122.798W3.29 6 km ( 4 mi) NW of The Geysers, CA
map0.22021/05/11 09:52:0336.127N117.843W4.74 13 km ( 8 mi) NE of Coso Junction, CA
map0.62021/05/11 09:51:1938.834N122.807W2.37 7 km ( 5 mi) W of Cobb, CA
map1.02021/05/11 09:49:3638.819N122.798W3.39 6 km ( 4 mi) NW of The Geysers, CA
map0.82021/05/11 09:45:0638.819N122.798W3.25 6 km ( 4 mi) NW of The Geysers, CA
map1.42021/05/11 09:39:1239.124N120.026W9.4 10 km ( 6 mi) SE of Dollar Point, CA
map0.72021/05/11 09:33:1835.870N117.669W7.16 23 km (14 mi) ESE of Little Lake, CA
map0.92021/05/11 09:22:0932.749N115.818W10.27 16 km (10 mi) E of Ocotillo, CA
map0.92021/05/11 09:11:3138.824N122.788W0.5 6 km ( 3 mi) W of Cobb, CA
map0.72021/05/11 09:09:0938.824N122.791W-0.06 6 km ( 4 mi) W of Cobb, CA
map2.22021/05/11 09:08:2936.130N117.838W4.54 14 km ( 9 mi) NE of Coso Junction, CA
map1.22021/05/11 09:01:4038.151N117.948W9.5 63 km (39 mi) W of Tonopah, NV
map0.92021/05/11 09:00:2732.750N115.800W8.07 18 km (11 mi) E of Ocotillo, CA
map0.12021/05/11 09:00:2733.480N116.501W14.76 18 km (11 mi) ESE of Anza, CA
map0.42021/05/11 08:59:3038.818N122.799W3.51 6 km ( 4 mi) NW of The Geysers, CA
map0.42021/05/11 08:55:1538.825N122.788W0.8 6 km ( 4 mi) W of Cobb, CA
map1.02021/05/11 08:54:4834.037N116.721W10.99 13 km ( 8 mi) W of Morongo Valley, CA
map0.42021/05/11 08:43:0733.488N116.484W13.53 19 km (12 mi) ESE of Anza, CA
map2.12021/05/11 08:38:2939.996N122.709W1.3 26 km (16 mi) W of Rancho Tehama Reserve, CA
map1.22021/05/11 08:27:4132.749N115.826W8.51 16 km (10 mi) E of Ocotillo, CA
map0.92021/05/11 08:23:5136.099N117.892W5.27 8 km ( 5 mi) NE of Coso Junction, CA
map1.92021/05/11 08:16:0938.181N117.782W11.4 50 km (31 mi) WNW of Tonopah, NV
map0.42021/05/11 08:10:1233.401N116.393W6.51 16 km (10 mi) N of Borrego Springs, CA
map0.92021/05/11 08:04:4533.336N116.230W11.38 16 km (10 mi) ENE of Borrego Springs, CA
map1.52021/05/11 07:54:3037.823N122.006W6.73 1 km ( 0 mi) WNW of Danville, CA
map1.32021/05/11 07:45:5535.136N118.240W8.95 11 km ( 7 mi) NNW of Mojave, CA
map0.62021/05/11 07:42:4235.672N117.527W7.11 15 km ( 9 mi) ENE of Ridgecrest, CA
map1.12021/05/11 07:36:1436.634N121.231W2.62 23 km (14 mi) SSE of Ridgemark, CA
map1.22021/05/11 07:35:4332.752N115.822W9.12 16 km (10 mi) E of Ocotillo, CA
map0.42021/05/11 07:33:3838.818N122.808W3.35 6 km ( 4 mi) NW of The Geysers, CA
map1.92021/05/11 07:26:5438.785N122.761W1.36 1 km ( 1 mi) NNW of The Geysers, CA
map0.92021/05/11 07:22:3435.885N117.715W6.79 18 km (11 mi) ESE of Little Lake, CA
map1.32021/05/11 07:14:3536.093N117.608W5.62 31 km (19 mi) E of Coso Junction, CA
map1.12021/05/11 07:11:5737.734N121.967W3.67 4 km ( 3 mi) NW of Dublin, CA
map1.02021/05/11 07:09:1433.400N116.404W4.73 16 km (10 mi) N of Borrego Springs, CA
map0.92021/05/11 07:05:4336.386N117.913W5.79 14 km ( 9 mi) NE of Olancha, CA
map1.32021/05/11 06:40:3639.466N120.309W13.0 19 km (12 mi) NW of Truckee, CA
map0.92021/05/11 06:39:0638.793N122.737W1.75 2 km ( 2 mi) NE of The Geysers, CA
map0.82021/05/11 06:27:5138.820N122.798W3.28 6 km ( 4 mi) NW of The Geysers, CA
map1.02021/05/11 06:24:3538.811N122.821W2.86 7 km ( 4 mi) WNW of The Geysers, CA
map1.42021/05/11 06:06:0032.748N115.820W6.09 16 km (10 mi) E of Ocotillo, CA
map1.12021/05/11 06:02:1938.848N122.964W3.87 7 km ( 4 mi) NE of Cloverdale, CA
map1.32021/05/11 06:00:2638.159N118.102W4.6 61 km (38 mi) SE of Hawthorne, NV
map1.92021/05/11 05:59:5632.751N115.819W10.19 16 km (10 mi) E of Ocotillo, CA
map1.42021/05/11 05:54:3336.093N117.597W10.88 32 km (20 mi) E of Coso Junction, CA
map2.02021/05/11 05:53:0032.750N115.823W8.97 16 km (10 mi) E of Ocotillo, CA
map2.22021/05/11 05:40:0532.746N115.822W10.39 16 km (10 mi) E of Ocotillo, CA
map0.92021/05/11 05:31:2238.825N122.809W0.97 7 km ( 4 mi) NW of The Geysers, CA
map0.82021/05/11 05:15:1732.754N115.808W5.03 17 km (11 mi) E of Ocotillo, CA
map0.42021/05/11 05:14:2433.355N116.338W12.12 12 km ( 7 mi) NNE of Borrego Springs, CA
map0.62021/05/11 04:55:5133.992N116.827W15.63 9 km ( 5 mi) NNE of Banning, CA
map2.12021/05/11 04:48:1134.026N117.229W16.5 4 km ( 2 mi) SE of Loma Linda, CA
map0.82021/05/11 04:45:0436.132N117.842W5.02 14 km ( 8 mi) NE of Coso Junction, CA
map1.12021/05/11 04:32:0737.730N121.974W4.66 5 km ( 3 mi) NW of Dublin, CA
map1.12021/05/11 04:25:0238.833N122.817W1.79 8 km ( 5 mi) NW of The Geysers, CA
map0.22021/05/11 04:18:5235.547N117.502W6.77 18 km (11 mi) ESE of Ridgecrest, CA
map0.72021/05/11 04:12:2838.819N122.799W3.2 6 km ( 4 mi) NW of The Geysers, CA
map1.02021/05/11 04:03:0038.816N122.819W2.55 7 km ( 4 mi) NW of The Geysers, CA
map0.82021/05/11 03:17:5634.029N117.227W15.31 4 km ( 2 mi) SE of Loma Linda, CA
map1.02021/05/11 02:49:0835.801N117.624W5.96 20 km (13 mi) W of Searles Valley, CA
map1.02021/05/11 02:48:3438.819N122.785W1.65 5 km ( 3 mi) NNW of The Geysers, CA
map0.52021/05/11 02:43:1635.883N117.704W8.47 19 km (12 mi) ESE of Little Lake, CA
map0.52021/05/11 02:42:5137.481N118.862W3.46 20 km (13 mi) SSE of Mammoth Lakes, CA
map0.92021/05/11 02:33:4538.837N122.806W1.84 7 km ( 5 mi) WNW of Cobb, CA
map0.82021/05/11 02:32:1433.645N116.725W14.6 11 km ( 7 mi) S of Idyllwild, CA
map1.32021/05/11 02:31:4833.636N116.728W15.15 10 km ( 6 mi) NNW of Anza, CA
map0.92021/05/11 02:18:2338.819N122.761W2.12 3 km ( 2 mi) W of Cobb, CA
map1.72021/05/11 02:14:0333.963N117.734W13.5 4 km ( 3 mi) SE of Chino Hills, CA
map2.02021/05/11 02:11:2037.358N119.597W42.32 6 km ( 4 mi) NE of Oakhurst, CA
map1.02021/05/11 02:10:5933.962N117.745W13.5 4 km ( 2 mi) SSE of Chino Hills, CA
map0.62021/05/11 02:06:3238.157N117.964W9.5 65 km (40 mi) W of Tonopah, NV
map1.02021/05/11 01:59:3335.491N118.290W2.39 21 km (13 mi) ESE of Bodfish, CA
map1.12021/05/11 01:58:2538.838N122.807W1.92 8 km ( 5 mi) WNW of Cobb, CA
map1.42021/05/11 01:53:3033.171N115.641W3.52 13 km ( 8 mi) WNW of Calipatria, CA
map1.72021/05/11 01:52:5738.778N122.740W0.96 1 km ( 1 mi) E of The Geysers, CA
map0.92021/05/11 01:42:3538.796N122.816W3.66 6 km ( 3 mi) WNW of The Geysers, CA
map1.02021/05/11 01:34:0933.763N118.216W6.59 6 km ( 4 mi) SW of Signal Hill, CA
map0.22021/05/11 01:24:3333.520N116.735W10.98 7 km ( 4 mi) SW of Anza, CA
map1.02021/05/11 01:19:1134.306N118.454W9.59 1 km ( 0 mi) WSW of Sylmar, CA
map1.22021/05/11 01:14:3838.833N122.817W1.68 8 km ( 5 mi) NW of The Geysers, CA
map0.42021/05/11 01:12:4638.832N122.809W2.23 8 km ( 5 mi) W of Cobb, CA
map1.42021/05/11 01:11:5838.146N118.114W4.8 61 km (38 mi) SE of Hawthorne, NV
map0.62021/05/11 01:11:3635.671N117.543W10.02 13 km ( 8 mi) ENE of Ridgecrest, CA
map1.02021/05/11 00:49:4336.081N117.880W3.35 7 km ( 5 mi) NE of Coso Junction, CA
map1.42021/05/11 00:48:1035.720N117.542W1.52 13 km ( 8 mi) WSW of Searles Valley, CA
map1.12021/05/11 00:47:1436.080N117.882W2.88 7 km ( 4 mi) ENE of Coso Junction, CA
map1.82021/05/11 00:42:2237.300N117.554W1.0 67 km (42 mi) ENE of Big Pine, CA
map1.62021/05/11 00:28:5139.591N123.368W7.07 15 km ( 9 mi) SE of Laytonville, CA
map0.92021/05/11 00:27:2638.813N122.832W1.99 8 km ( 5 mi) WNW of The Geysers, CA
map1.62021/05/11 00:11:1936.084N117.877W3.38 8 km ( 5 mi) NE of Coso Junction, CA
map1.02021/05/11 00:10:5238.818N122.760W1.83 3 km ( 2 mi) W of Cobb, CA
map0.52021/05/11 00:01:2533.229N116.734W13.64 3 km ( 2 mi) ESE of Lake Henshaw, CA
map0.92021/05/10 23:53:4438.830N122.814W1.72 8 km ( 5 mi) NW of The Geysers, CA
map0.62021/05/10 23:22:1933.249N116.067W10.66 12 km ( 7 mi) WSW of Salton City, CA
map0.82021/05/10 22:49:0138.798N122.815W3.26 6 km ( 3 mi) WNW of The Geysers, CA
map0.42021/05/10 22:47:2638.818N122.822W2.3 7 km ( 5 mi) NW of The Geysers, CA
map0.72021/05/10 22:43:3538.827N122.792W1.7 6 km ( 4 mi) W of Cobb, CA
map0.92021/05/10 22:37:3338.814N122.824W2.38 7 km ( 4 mi) NW of The Geysers, CA
map0.92021/05/10 22:33:1735.986N120.567W4.04 16 km (10 mi) NW of Parkfield, CA
map1.62021/05/10 22:26:2138.163N118.077W5.0 62 km (39 mi) SE of Hawthorne, NV
map1.32021/05/10 22:23:2933.024N115.605W5.94 2 km ( 1 mi) SE of Westmorland, CA
map0.82021/05/10 22:17:4533.155N115.685W13.45 14 km ( 9 mi) NNW of Westmorland, CA
map2.12021/05/10 22:17:2132.215N115.275W15.44 10 km ( 6 mi) W of Alberto Oviedo Mota, B.C., MX
map2.32021/05/10 22:16:3838.171N117.893W11.5 59 km (37 mi) W of Tonopah, NV
map1.42021/05/10 22:16:3038.175N117.968W5.8 66 km (41 mi) W of Tonopah, NV
map1.72021/05/10 22:11:0439.240N123.256W2.07 5 km ( 3 mi) WSW of Redwood Valley, CA
map1.22021/05/10 22:07:0438.828N122.820W0.57 8 km ( 5 mi) NW of The Geysers, CA
map1.02021/05/10 21:44:3538.170N117.975W1.9 66 km (41 mi) W of Tonopah, NV
map1.32021/05/10 21:40:4133.227N116.737W12.11 3 km ( 2 mi) SE of Lake Henshaw, CA
map0.92021/05/10 21:35:2635.891N117.681W2.52 21 km (13 mi) ESE of Little Lake, CA
map0.82021/05/10 21:33:4038.820N122.811W1.77 7 km ( 4 mi) NW of The Geysers, CA
map1.22021/05/10 21:32:0534.019N117.220W9.55 5 km ( 3 mi) SE of Loma Linda, CA
map0.82021/05/10 21:28:3938.821N122.811W1.41 7 km ( 4 mi) NW of The Geysers, CA
map0.82021/05/10 21:27:3838.809N122.774W1.22 4 km ( 2 mi) NNW of The Geysers, CA
map0.92021/05/10 21:10:4338.833N122.817W1.52 8 km ( 5 mi) NW of The Geysers, CA
map0.92021/05/10 21:09:3438.764N122.713W1.65 4 km ( 3 mi) ESE of The Geysers, CA
map0.92021/05/10 21:09:1138.833N122.818W1.33 8 km ( 5 mi) NW of The Geysers, CA
map-0.22021/05/10 21:03:2038.797N122.816W3.73 6 km ( 3 mi) WNW of The Geysers, CA
map0.72021/05/10 20:53:0137.554N118.805W4.89 18 km (11 mi) ESE of Mammoth Lakes, CA
map0.82021/05/10 20:50:4835.918N117.722W3.35 17 km (10 mi) E of Little Lake, CA
map0.72021/05/10 20:30:1438.798N122.739W1.83 3 km ( 2 mi) NNE of The Geysers, CA
map0.32021/05/10 20:24:0733.525N116.714W5.19 5 km ( 3 mi) SW of Anza, CA
map0.22021/05/10 20:20:1838.781N122.744W0.73 1 km ( 1 mi) ENE of The Geysers, CA
map1.82021/05/10 20:16:3038.160N117.844W7.2 55 km (34 mi) W of Tonopah, NV
map1.12021/05/10 20:16:2135.985N117.442W5.37 24 km (15 mi) N of Searles Valley, CA
map0.92021/05/10 20:07:2437.421N118.805W7.62 28 km (18 mi) SSE of Mammoth Lakes, CA
map0.92021/05/10 20:06:5638.819N122.811W1.71 7 km ( 4 mi) NW of The Geysers, CA
map2.32021/05/10 20:01:5332.557N115.618W11.61 4 km ( 3 mi) SW of Progreso, B.C., MX
map0.52021/05/10 19:43:1838.802N122.774W0.89 3 km ( 2 mi) NNW of The Geysers, CA
map1.32021/05/10 19:42:5938.803N122.772W2.61 3 km ( 2 mi) NNW of The Geysers, CA
map0.12021/05/10 19:42:5738.802N122.775W0.56 3 km ( 2 mi) NNW of The Geysers, CA
map0.92021/05/10 19:41:3338.763N122.725W1.38 3 km ( 2 mi) ESE of The Geysers, CA
map1.22021/05/10 19:39:3038.794N122.448W9.16 10 km ( 6 mi) E of Hidden Valley Lake, CA
map1.42021/05/10 19:26:3633.995N116.798W17.49 9 km ( 5 mi) N of Cabazon, CA
map1.42021/05/10 19:26:2633.994N116.796W16.91 9 km ( 5 mi) N of Cabazon, CA